DLH422 EDDF-KBOS
Flight info
| Callsign | DLH422 |
|---|---|
| Flight time | 8h 9m |
| Altitude | 34000 |
| Route | OBOKA3M/25C OBOKA Z29 TORNU DCT RAVLO Y70 OTBED L60 PENIL M144 BABRA/N0475F360 M144 BAGSO DCT RESNO/M082F370 NATE NEEKO/N0467F380 DCT TOPPS DCT AJJAY OOSHN5 |
| Aircraft | A343/H-SDE2E3FGHIJ4J5M1RWXY/LB1D1 |
Departure
| Time | 2026-04-10 14:48 |
|---|---|
| Airport | Frankfurt Main Airport (EDDF) |
Arrival
| Time | 2026-04-10 22:57 |
|---|---|
| Airport | Boston Logan International Airport (KBOS) |
| Time | Latitude | Longitude | Altitude | Speed | Heading |
|---|---|---|---|---|---|
| 2026-04-10 13:41 | 50.04754 | 8.56389 | 364 ft | 0 kts | 340° |
| 2026-04-10 14:27 | 50.04740 | 8.56398 | 364 ft | 4 kts | 338° |
| 2026-04-10 14:27 | 50.04715 | 8.56414 | 363 ft | 4 kts | 332° |
| 2026-04-10 14:27 | 50.04692 | 8.56435 | 361 ft | 4 kts | 320° |
| 2026-04-10 14:27 | 50.04674 | 8.56463 | 359 ft | 4 kts | 298° |
| 2026-04-10 14:28 | 50.04664 | 8.56495 | 366 ft | 4 kts | 323° |
| 2026-04-10 14:28 | 50.04649 | 8.56507 | 361 ft | 4 kts | 15° |
| 2026-04-10 14:28 | 50.04636 | 8.56500 | 363 ft | 7 kts | 25° |
| 2026-04-10 14:28 | 50.04655 | 8.56497 | 361 ft | 4 kts | 342° |
| 2026-04-10 14:29 | 50.04667 | 8.56472 | 362 ft | 4 kts | 298° |
| 2026-04-10 14:29 | 50.04668 | 8.56448 | 365 ft | 4 kts | 274° |
| 2026-04-10 14:29 | 50.04662 | 8.56415 | 363 ft | 1 kts | 252° |
| 2026-04-10 14:29 | 50.04658 | 8.56399 | 364 ft | 2 kts | 250° |
| 2026-04-10 14:30 | 50.04658 | 8.56398 | 360 ft | 7 kts | 250° |
| 2026-04-10 14:34 | 50.04656 | 8.56391 | 361 ft | 2 kts | 250° |
| 2026-04-10 14:34 | 50.04646 | 8.56350 | 362 ft | 8 kts | 250° |
| 2026-04-10 14:35 | 50.04616 | 8.56221 | 363 ft | 18 kts | 250° |
| 2026-04-10 14:35 | 50.04568 | 8.56027 | 364 ft | 17 kts | 244° |
| 2026-04-10 14:35 | 50.04507 | 8.55957 | 365 ft | 7 kts | 200° |
| 2026-04-10 14:35 | 50.04455 | 8.55925 | 365 ft | 9 kts | 200° |
| 2026-04-10 14:36 | 50.04391 | 8.55912 | 364 ft | 10 kts | 176° |
| 2026-04-10 14:36 | 50.04325 | 8.55940 | 362 ft | 4 kts | 161° |
| 2026-04-10 14:36 | 50.04324 | 8.55940 | 362 ft | 0 kts | 161° |
| 2026-04-10 14:36 | 50.04323 | 8.55940 | 361 ft | 1 kts | 161° |
| 2026-04-10 14:37 | 50.04318 | 8.55943 | 360 ft | 0 kts | 161° |
| 2026-04-10 14:37 | 50.04317 | 8.55944 | 360 ft | 1 kts | 161° |
| 2026-04-10 14:38 | 50.04297 | 8.55953 | 359 ft | 5 kts | 166° |
| 2026-04-10 14:38 | 50.04247 | 8.55936 | 359 ft | 10 kts | 204° |
| 2026-04-10 14:38 | 50.04165 | 8.55930 | 355 ft | 14 kts | 165° |
| 2026-04-10 14:38 | 50.04079 | 8.56019 | 360 ft | 17 kts | 112° |
| 2026-04-10 14:39 | 50.04105 | 8.56191 | 363 ft | 17 kts | 69° |
| 2026-04-10 14:39 | 50.04148 | 8.56368 | 362 ft | 16 kts | 69° |
| 2026-04-10 14:39 | 50.04187 | 8.56530 | 361 ft | 9 kts | 71° |
| 2026-04-10 14:39 | 50.04188 | 8.56535 | 360 ft | 0 kts | 71° |
| 2026-04-10 14:40 | 50.04190 | 8.56540 | 363 ft | 2 kts | 70° |
| 2026-04-10 14:40 | 50.04199 | 8.56581 | 364 ft | 6 kts | 71° |
| 2026-04-10 14:40 | 50.04218 | 8.56660 | 366 ft | 9 kts | 69° |
| 2026-04-10 14:41 | 50.04244 | 8.56768 | 366 ft | 12 kts | 70° |
| 2026-04-10 14:41 | 50.04275 | 8.56899 | 364 ft | 15 kts | 70° |
| 2026-04-10 14:41 | 50.04318 | 8.57071 | 367 ft | 18 kts | 70° |
| 2026-04-10 14:41 | 50.04366 | 8.57272 | 368 ft | 22 kts | 69° |
| 2026-04-10 14:42 | 50.04417 | 8.57497 | 365 ft | 23 kts | 69° |
| 2026-04-10 14:42 | 50.04475 | 8.57740 | 369 ft | 25 kts | 69° |
| 2026-04-10 14:42 | 50.04541 | 8.58012 | 367 ft | 28 kts | 69° |
| 2026-04-10 14:42 | 50.04605 | 8.58279 | 375 ft | 19 kts | 69° |
| 2026-04-10 14:43 | 50.04648 | 8.58459 | 374 ft | 17 kts | 71° |
| 2026-04-10 14:43 | 50.04615 | 8.58577 | 371 ft | 10 kts | 150° |
| 2026-04-10 14:43 | 50.04552 | 8.58615 | 373 ft | 9 kts | 164° |
| 2026-04-10 14:43 | 50.04501 | 8.58600 | 373 ft | 7 kts | 209° |
| 2026-04-10 14:44 | 50.04474 | 8.58538 | 373 ft | 7 kts | 249° |
| 2026-04-10 14:44 | 50.04462 | 8.58484 | 374 ft | 0 kts | 251° |
| 2026-04-10 14:46 | 50.04458 | 8.58466 | 372 ft | 9 kts | 250° |
| 2026-04-10 14:47 | 50.04417 | 8.58293 | 371 ft | 46 kts | 250° |
| 2026-04-10 14:47 | 50.04232 | 8.57520 | 368 ft | 105 kts | 249° |
| 2026-04-10 14:47 | 50.03923 | 8.56212 | 362 ft | 153 kts | 250° |
| 2026-04-10 14:47 | 50.03489 | 8.54474 | 403 ft | 187 kts | 250° |
| 2026-04-10 14:48 | 50.03002 | 8.52554 | 881 ft | 193 kts | 249° |
| 2026-04-10 14:48 | 50.02518 | 8.50644 | 1722 ft | 189 kts | 249° |
| 2026-04-10 14:48 | 50.01999 | 8.48658 | 2023 ft | 208 kts | 249° |
| 2026-04-10 14:48 | 50.01449 | 8.46437 | 2022 ft | 231 kts | 252° |
| 2026-04-10 14:49 | 50.00675 | 8.44168 | 2177 ft | 248 kts | 227° |
| 2026-04-10 14:49 | 49.99153 | 8.42966 | 2565 ft | 251 kts | 186° |
| 2026-04-10 14:49 | 49.97443 | 8.43424 | 2933 ft | 254 kts | 159° |
| 2026-04-10 14:49 | 49.95692 | 8.44394 | 3207 ft | 274 kts | 165° |
| 2026-04-10 14:50 | 49.93859 | 8.44708 | 4209 ft | 258 kts | 181° |
| 2026-04-10 14:50 | 49.92058 | 8.44378 | 4673 ft | 266 kts | 201° |
| 2026-04-10 14:50 | 49.90596 | 8.42761 | 5385 ft | 256 kts | 233° |
| 2026-04-10 14:50 | 49.89650 | 8.40382 | 5816 ft | 266 kts | 243° |
| 2026-04-10 14:51 | 49.88790 | 8.37834 | 6437 ft | 266 kts | 248° |
| 2026-04-10 14:51 | 49.88438 | 8.35034 | 6951 ft | 266 kts | 274° |
| 2026-04-10 14:51 | 49.88720 | 8.32167 | 7221 ft | 274 kts | 281° |
| 2026-04-10 14:51 | 49.88986 | 8.29283 | 7090 ft | 272 kts | 275° |
| 2026-04-10 14:52 | 49.89205 | 8.26417 | 6958 ft | 266 kts | 288° |
| 2026-04-10 14:52 | 49.90150 | 8.24012 | 7081 ft | 263 kts | 311° |
| 2026-04-10 14:52 | 49.91415 | 8.21895 | 7014 ft | 269 kts | 309° |
| 2026-04-10 14:52 | 49.92466 | 8.19531 | 7024 ft | 263 kts | 300° |
| 2026-04-10 14:53 | 49.93429 | 8.17092 | 7010 ft | 266 kts | 304° |
| 2026-04-10 14:53 | 49.94666 | 8.14986 | 7019 ft | 265 kts | 321° |
| 2026-04-10 14:53 | 49.96180 | 8.13310 | 7008 ft | 267 kts | 323° |
| 2026-04-10 14:53 | 49.97604 | 8.11483 | 7020 ft | 265 kts | 315° |
| 2026-04-10 14:54 | 49.98923 | 8.09436 | 7153 ft | 270 kts | 315° |
| 2026-04-10 14:54 | 50.00326 | 8.07564 | 7941 ft | 263 kts | 320° |
| 2026-04-10 14:54 | 50.01782 | 8.05821 | 8480 ft | 266 kts | 319° |
| 2026-04-10 14:54 | 50.03161 | 8.03930 | 9109 ft | 264 kts | 314° |
| 2026-04-10 14:55 | 50.04502 | 8.01990 | 9693 ft | 264 kts | 316° |
| 2026-04-10 14:55 | 50.05916 | 8.00170 | 10230 ft | 264 kts | 318° |
| 2026-04-10 14:55 | 50.07343 | 7.98341 | 10696 ft | 266 kts | 316° |
| 2026-04-10 14:55 | 50.08755 | 7.96357 | 10808 ft | 282 kts | 314° |
| 2026-04-10 14:56 | 50.10272 | 7.94261 | 10839 ft | 301 kts | 316° |
| 2026-04-10 14:56 | 50.11933 | 7.92109 | 10863 ft | 320 kts | 317° |
| 2026-04-10 14:56 | 50.13656 | 7.89817 | 10863 ft | 338 kts | 316° |
| 2026-04-10 14:56 | 50.15450 | 7.87335 | 11391 ft | 338 kts | 316° |
| 2026-04-10 14:57 | 50.17200 | 7.84962 | 11956 ft | 341 kts | 316° |
| 2026-04-10 14:57 | 50.19020 | 7.82543 | 12422 ft | 344 kts | 316° |
| 2026-04-10 14:57 | 50.20828 | 7.80106 | 13003 ft | 345 kts | 315° |
| 2026-04-10 14:57 | 50.22643 | 7.77618 | 13508 ft | 348 kts | 315° |
| 2026-04-10 14:58 | 50.24473 | 7.75137 | 14044 ft | 350 kts | 316° |
| 2026-04-10 14:58 | 50.26510 | 7.73014 | 14440 ft | 358 kts | 332° |
| 2026-04-10 14:58 | 50.28829 | 7.71632 | 15115 ft | 355 kts | 334° |
| 2026-04-10 14:58 | 50.31104 | 7.70048 | 15396 ft | 361 kts | 328° |
| 2026-04-10 14:59 | 50.33340 | 7.68282 | 15986 ft | 359 kts | 329° |
| 2026-04-10 14:59 | 50.35648 | 7.66733 | 16470 ft | 363 kts | 333° |
| 2026-04-10 14:59 | 50.38010 | 7.65296 | 16988 ft | 364 kts | 332° |
| 2026-04-10 14:59 | 50.40318 | 7.63683 | 17519 ft | 363 kts | 329° |
| 2026-04-10 15:00 | 50.42611 | 7.61969 | 18006 ft | 366 kts | 329° |
| 2026-04-10 15:00 | 50.44959 | 7.60387 | 18498 ft | 368 kts | 332° |
| 2026-04-10 15:00 | 50.47334 | 7.58850 | 18956 ft | 369 kts | 330° |
| 2026-04-10 15:00 | 50.49672 | 7.57202 | 19335 ft | 369 kts | 329° |
| 2026-04-10 15:01 | 50.52013 | 7.55517 | 19737 ft | 371 kts | 330° |
| 2026-04-10 15:01 | 50.54388 | 7.53906 | 20146 ft | 373 kts | 330° |
| 2026-04-10 15:01 | 50.56666 | 7.52120 | 20495 ft | 368 kts | 321° |
| 2026-04-10 15:01 | 50.58783 | 7.49798 | 20874 ft | 368 kts | 320° |
| 2026-04-10 15:02 | 50.60926 | 7.47619 | 21208 ft | 372 kts | 323° |
| 2026-04-10 15:02 | 50.63130 | 7.45537 | 21724 ft | 371 kts | 322° |
| 2026-04-10 15:02 | 50.65302 | 7.43294 | 22043 ft | 372 kts | 320° |
| 2026-04-10 15:02 | 50.67436 | 7.40966 | 22393 ft | 374 kts | 320° |
| 2026-04-10 15:03 | 50.69627 | 7.38739 | 22784 ft | 376 kts | 322° |
| 2026-04-10 15:03 | 50.71845 | 7.36549 | 23155 ft | 376 kts | 320° |
| 2026-04-10 15:03 | 50.73824 | 7.33907 | 23527 ft | 370 kts | 309° |
| 2026-04-10 15:03 | 50.75415 | 7.30741 | 23830 ft | 368 kts | 300° |
| 2026-04-10 15:04 | 50.76627 | 7.27196 | 24146 ft | 367 kts | 295° |
| 2026-04-10 15:04 | 50.77787 | 7.23580 | 24371 ft | 370 kts | 296° |
| 2026-04-10 15:04 | 50.78989 | 7.20036 | 24686 ft | 370 kts | 296° |
| 2026-04-10 15:04 | 50.80168 | 7.16416 | 24982 ft | 371 kts | 295° |
| 2026-04-10 15:05 | 50.82508 | 7.09087 | 25490 ft | 374 kts | 296° |
| 2026-04-10 15:05 | 50.83719 | 7.05441 | 25787 ft | 375 kts | 295° |
| 2026-04-10 15:05 | 50.84900 | 7.01759 | 26060 ft | 376 kts | 295° |
| 2026-04-10 15:06 | 50.86082 | 6.98037 | 26322 ft | 378 kts | 295° |
| 2026-04-10 15:06 | 50.87288 | 6.94329 | 26572 ft | 379 kts | 295° |
| 2026-04-10 15:06 | 50.88494 | 6.90621 | 26839 ft | 380 kts | 295° |
| 2026-04-10 15:06 | 50.89687 | 6.86873 | 27094 ft | 382 kts | 295° |
| 2026-04-10 15:07 | 50.90886 | 6.83122 | 27343 ft | 383 kts | 295° |
| 2026-04-10 15:07 | 50.92108 | 6.79348 | 27596 ft | 384 kts | 295° |
| 2026-04-10 15:07 | 50.93314 | 6.75577 | 27850 ft | 385 kts | 295° |
| 2026-04-10 15:07 | 50.94518 | 6.71777 | 28084 ft | 387 kts | 295° |
| 2026-04-10 15:08 | 50.96991 | 6.64053 | 28157 ft | 398 kts | 295° |
| 2026-04-10 15:08 | 50.99482 | 6.56195 | 28586 ft | 400 kts | 295° |
| 2026-04-10 15:09 | 51.00730 | 6.52272 | 28919 ft | 398 kts | 295° |
| 2026-04-10 15:09 | 51.01939 | 6.48446 | 29207 ft | 397 kts | 294° |
| 2026-04-10 15:09 | 51.03174 | 6.44529 | 29502 ft | 396 kts | 294° |
| 2026-04-10 15:09 | 51.04410 | 6.40623 | 29821 ft | 395 kts | 294° |
| 2026-04-10 15:10 | 51.05637 | 6.36734 | 30153 ft | 393 kts | 294° |
| 2026-04-10 15:10 | 51.06859 | 6.32834 | 30431 ft | 392 kts | 294° |
| 2026-04-10 15:10 | 51.08079 | 6.28954 | 30671 ft | 392 kts | 295° |
| 2026-04-10 15:10 | 51.09298 | 6.25079 | 30902 ft | 391 kts | 295° |
| 2026-04-10 15:11 | 51.10510 | 6.21197 | 31137 ft | 391 kts | 295° |
| 2026-04-10 15:11 | 51.11723 | 6.17313 | 31374 ft | 391 kts | 295° |
| 2026-04-10 15:11 | 51.12919 | 6.13492 | 31622 ft | 390 kts | 295° |
| 2026-04-10 15:11 | 51.14034 | 6.09566 | 31861 ft | 389 kts | 289° |
| 2026-04-10 15:12 | 51.14729 | 6.05410 | 32128 ft | 388 kts | 284° |
| 2026-04-10 15:12 | 51.15383 | 6.01234 | 32256 ft | 389 kts | 286° |
| 2026-04-10 15:12 | 51.16128 | 5.97081 | 32507 ft | 389 kts | 287° |
| 2026-04-10 15:12 | 51.16819 | 5.92924 | 32780 ft | 388 kts | 285° |
| 2026-04-10 15:13 | 51.17477 | 5.88764 | 32981 ft | 387 kts | 289° |
| 2026-04-10 15:13 | 51.18572 | 5.84853 | 33169 ft | 386 kts | 298° |
| 2026-04-10 15:13 | 51.20037 | 5.81269 | 33427 ft | 386 kts | 306° |
| 2026-04-10 15:13 | 51.21844 | 5.78161 | 33674 ft | 388 kts | 313° |
| 2026-04-10 15:14 | 51.23852 | 5.75272 | 33938 ft | 388 kts | 313° |
| 2026-04-10 15:14 | 51.25823 | 5.72345 | 34189 ft | 387 kts | 313° |
| 2026-04-10 15:14 | 51.29824 | 5.66430 | 34169 ft | 391 kts | 314° |
| 2026-04-10 15:15 | 51.33810 | 5.60550 | 34148 ft | 391 kts | 313° |
| 2026-04-10 15:15 | 51.37820 | 5.54622 | 34161 ft | 391 kts | 313° |
| 2026-04-10 15:16 | 51.41802 | 5.48691 | 34164 ft | 390 kts | 313° |
| 2026-04-10 15:16 | 51.45774 | 5.42806 | 34153 ft | 391 kts | 313° |
| 2026-04-10 15:17 | 51.49738 | 5.36866 | 34164 ft | 390 kts | 313° |
| 2026-04-10 15:17 | 51.53715 | 5.30945 | 34158 ft | 389 kts | 313° |
| 2026-04-10 15:18 | 51.57652 | 5.25020 | 34155 ft | 389 kts | 313° |
| 2026-04-10 15:18 | 51.60897 | 5.20163 | 34163 ft | 388 kts | 313° |
| 2026-04-10 15:19 | 51.64819 | 5.14240 | 34157 ft | 389 kts | 312° |
| 2026-04-10 15:19 | 51.68696 | 5.08398 | 34152 ft | 389 kts | 312° |
| 2026-04-10 15:20 | 51.72636 | 5.02430 | 34152 ft | 387 kts | 312° |
| 2026-04-10 15:20 | 51.76555 | 4.96483 | 34157 ft | 387 kts | 312° |
| 2026-04-10 15:21 | 51.80487 | 4.90508 | 34156 ft | 387 kts | 312° |
| 2026-04-10 15:21 | 51.84404 | 4.84525 | 34172 ft | 387 kts | 312° |
| 2026-04-10 15:22 | 51.88300 | 4.78582 | 34148 ft | 388 kts | 312° |
| 2026-04-10 15:22 | 51.92206 | 4.72584 | 34138 ft | 387 kts | 312° |
| 2026-04-10 15:23 | 51.96016 | 4.66739 | 34183 ft | 386 kts | 311° |
| 2026-04-10 15:23 | 51.99430 | 4.61477 | 34188 ft | 386 kts | 311° |
| 2026-04-10 15:24 | 52.03334 | 4.55451 | 34146 ft | 389 kts | 311° |
| 2026-04-10 15:24 | 52.07310 | 4.49294 | 34156 ft | 401 kts | 311° |
| 2026-04-10 15:25 | 52.11382 | 4.42977 | 34165 ft | 405 kts | 311° |
| 2026-04-10 15:25 | 52.15458 | 4.36639 | 34161 ft | 405 kts | 311° |
| 2026-04-10 15:26 | 52.19526 | 4.30289 | 34157 ft | 405 kts | 311° |
| 2026-04-10 15:26 | 52.23596 | 4.23928 | 34168 ft | 404 kts | 311° |
| 2026-04-10 15:27 | 52.27656 | 4.17557 | 34160 ft | 404 kts | 311° |
| 2026-04-10 15:27 | 52.31687 | 4.11222 | 34173 ft | 404 kts | 311° |
| 2026-04-10 15:28 | 52.35736 | 4.04835 | 34166 ft | 404 kts | 311° |
| 2026-04-10 15:28 | 52.39777 | 3.98448 | 34165 ft | 404 kts | 310° |
| 2026-04-10 15:29 | 52.43824 | 3.92034 | 34164 ft | 404 kts | 310° |
| 2026-04-10 15:29 | 52.47838 | 3.85651 | 34156 ft | 404 kts | 310° |
| 2026-04-10 15:30 | 52.51875 | 3.79220 | 34170 ft | 404 kts | 310° |
| 2026-04-10 15:30 | 52.55869 | 3.72834 | 34167 ft | 404 kts | 310° |
| 2026-04-10 15:31 | 52.59897 | 3.66383 | 34171 ft | 404 kts | 310° |
| 2026-04-10 15:31 | 52.63926 | 3.59909 | 34168 ft | 404 kts | 310° |
| 2026-04-10 15:32 | 52.67925 | 3.53466 | 34162 ft | 405 kts | 310° |
| 2026-04-10 15:32 | 52.71949 | 3.46967 | 34160 ft | 405 kts | 310° |
| 2026-04-10 15:33 | 52.75871 | 3.40612 | 34158 ft | 405 kts | 309° |
| 2026-04-10 15:33 | 52.79043 | 3.35462 | 34127 ft | 405 kts | 309° |
| 2026-04-10 15:34 | 52.83053 | 3.28935 | 34168 ft | 404 kts | 309° |
| 2026-04-10 15:34 | 52.86843 | 3.22753 | 34171 ft | 404 kts | 309° |
| 2026-04-10 15:35 | 52.90480 | 3.15736 | 34177 ft | 399 kts | 298° |
| 2026-04-10 15:35 | 52.92635 | 3.07572 | 34135 ft | 396 kts | 284° |
| 2026-04-10 15:36 | 52.93801 | 2.98673 | 34113 ft | 395 kts | 283° |
| 2026-04-10 15:36 | 52.95005 | 2.89824 | 34153 ft | 394 kts | 281° |
| 2026-04-10 15:37 | 52.96130 | 2.80981 | 34157 ft | 395 kts | 282° |
| 2026-04-10 15:37 | 52.97102 | 2.73678 | 34160 ft | 395 kts | 281° |
| 2026-04-10 15:38 | 52.98232 | 2.64753 | 34103 ft | 395 kts | 282° |
| 2026-04-10 15:38 | 52.99379 | 2.55901 | 34123 ft | 394 kts | 281° |
| 2026-04-10 15:39 | 53.00509 | 2.46999 | 34155 ft | 394 kts | 281° |
| 2026-04-10 15:39 | 53.01637 | 2.38080 | 34126 ft | 395 kts | 281° |
| 2026-04-10 15:40 | 53.02763 | 2.29159 | 34095 ft | 395 kts | 281° |
| 2026-04-10 15:40 | 53.03874 | 2.20233 | 34140 ft | 394 kts | 281° |
| 2026-04-10 15:41 | 53.04986 | 2.11311 | 34145 ft | 394 kts | 281° |
| 2026-04-10 15:41 | 53.06085 | 2.02369 | 34089 ft | 395 kts | 280° |
| 2026-04-10 15:42 | 53.07182 | 1.93429 | 34111 ft | 394 kts | 280° |
| 2026-04-10 15:42 | 53.08270 | 1.84486 | 34139 ft | 394 kts | 280° |
| 2026-04-10 15:43 | 53.09350 | 1.75544 | 34101 ft | 395 kts | 280° |
| 2026-04-10 15:43 | 53.10419 | 1.66649 | 34078 ft | 395 kts | 279° |
| 2026-04-10 15:44 | 53.11426 | 1.58208 | 34131 ft | 394 kts | 279° |
| 2026-04-10 15:44 | 53.12487 | 1.49253 | 34128 ft | 394 kts | 279° |
| 2026-04-10 15:45 | 53.13537 | 1.40327 | 34080 ft | 395 kts | 279° |
| 2026-04-10 15:45 | 53.14590 | 1.31322 | 34081 ft | 395 kts | 279° |
| 2026-04-10 15:46 | 53.15628 | 1.22376 | 34119 ft | 394 kts | 279° |
| 2026-04-10 15:46 | 53.16665 | 1.13380 | 34092 ft | 395 kts | 279° |
| 2026-04-10 15:47 | 53.17697 | 1.04367 | 34062 ft | 395 kts | 278° |
| 2026-04-10 15:47 | 53.18720 | 0.95362 | 34103 ft | 394 kts | 278° |
| 2026-04-10 15:48 | 53.19732 | 0.86399 | 34099 ft | 395 kts | 278° |
| 2026-04-10 15:48 | 53.20699 | 0.77776 | 34061 ft | 396 kts | 278° |
| 2026-04-10 15:49 | 53.21517 | 0.70416 | 34055 ft | 396 kts | 278° |
| 2026-04-10 15:49 | 53.22457 | 0.61929 | 34067 ft | 395 kts | 278° |
| 2026-04-10 15:50 | 53.23449 | 0.52904 | 34104 ft | 395 kts | 278° |
| 2026-04-10 15:50 | 53.24434 | 0.43928 | 34056 ft | 396 kts | 278° |
| 2026-04-10 15:51 | 53.25414 | 0.34886 | 34051 ft | 395 kts | 277° |
| 2026-04-10 15:51 | 53.26382 | 0.25853 | 34075 ft | 395 kts | 277° |
| 2026-04-10 15:52 | 53.27289 | 0.17367 | 34052 ft | 396 kts | 277° |
| 2026-04-10 15:52 | 53.28229 | 0.08481 | 34058 ft | 395 kts | 277° |
| 2026-04-10 15:53 | 53.29113 | 0.00068 | 34043 ft | 395 kts | 277° |
| 2026-04-10 15:53 | 53.30055 | -0.08985 | 34062 ft | 395 kts | 277° |
| 2026-04-10 15:54 | 53.30979 | -0.17955 | 34051 ft | 395 kts | 277° |
| 2026-04-10 15:54 | 53.31911 | -0.27013 | 34041 ft | 396 kts | 277° |
| 2026-04-10 15:55 | 53.32829 | -0.36086 | 34056 ft | 395 kts | 276° |
| 2026-04-10 15:55 | 53.33751 | -0.45175 | 34050 ft | 395 kts | 276° |
| 2026-04-10 15:56 | 53.34665 | -0.54258 | 34042 ft | 396 kts | 276° |
| 2026-04-10 15:56 | 53.35570 | -0.63345 | 34051 ft | 395 kts | 276° |
| 2026-04-10 15:57 | 53.36468 | -0.72384 | 34040 ft | 396 kts | 276° |
| 2026-04-10 15:57 | 53.37354 | -0.81473 | 34038 ft | 396 kts | 276° |
| 2026-04-10 15:58 | 53.38244 | -0.90578 | 34040 ft | 396 kts | 275° |
| 2026-04-10 15:58 | 53.39116 | -0.99680 | 34027 ft | 396 kts | 275° |
| 2026-04-10 15:59 | 53.39985 | -1.08802 | 34033 ft | 396 kts | 275° |
| 2026-04-10 15:59 | 53.40857 | -1.17937 | 34031 ft | 396 kts | 275° |
| 2026-04-10 16:00 | 53.41712 | -1.27065 | 34014 ft | 397 kts | 275° |
| 2026-04-10 16:00 | 53.42557 | -1.36155 | 34022 ft | 397 kts | 275° |
| 2026-04-10 16:01 | 53.43402 | -1.45304 | 34020 ft | 397 kts | 275° |
| 2026-04-10 16:01 | 53.44238 | -1.54449 | 34020 ft | 397 kts | 274° |
| 2026-04-10 16:02 | 53.45071 | -1.63599 | 34021 ft | 397 kts | 274° |
| 2026-04-10 16:02 | 53.45895 | -1.72757 | 34011 ft | 396 kts | 274° |
| 2026-04-10 16:03 | 53.46652 | -1.81209 | 34013 ft | 396 kts | 274° |
| 2026-04-10 16:03 | 53.47459 | -1.90358 | 34015 ft | 396 kts | 274° |
| 2026-04-10 16:04 | 53.48260 | -1.99474 | 34008 ft | 394 kts | 274° |
| 2026-04-10 16:04 | 53.49041 | -2.08529 | 33986 ft | 397 kts | 273° |
| 2026-04-10 16:05 | 53.49836 | -2.17703 | 34005 ft | 396 kts | 273° |
| 2026-04-10 16:05 | 53.50612 | -2.26882 | 34000 ft | 397 kts | 273° |
| 2026-04-10 16:06 | 53.51390 | -2.36076 | 34004 ft | 397 kts | 273° |
| 2026-04-10 16:06 | 53.52158 | -2.45290 | 33998 ft | 398 kts | 273° |
| 2026-04-10 16:07 | 53.52874 | -2.53940 | 33999 ft | 398 kts | 272° |
| 2026-04-10 16:07 | 53.53631 | -2.63177 | 33980 ft | 399 kts | 272° |
| 2026-04-10 16:08 | 53.54376 | -2.72362 | 33992 ft | 399 kts | 272° |
| 2026-04-10 16:08 | 53.55119 | -2.81602 | 33940 ft | 400 kts | 272° |
| 2026-04-10 16:09 | 53.55856 | -2.90872 | 33952 ft | 399 kts | 272° |
| 2026-04-10 16:09 | 53.56586 | -3.00146 | 33961 ft | 400 kts | 272° |
| 2026-04-10 16:10 | 53.57312 | -3.09446 | 33956 ft | 400 kts | 271° |
| 2026-04-10 16:10 | 53.58027 | -3.18729 | 33955 ft | 401 kts | 271° |
| 2026-04-10 16:11 | 53.58735 | -3.27994 | 33942 ft | 401 kts | 271° |
| 2026-04-10 16:11 | 53.59440 | -3.37320 | 33955 ft | 402 kts | 271° |
| 2026-04-10 16:12 | 53.60138 | -3.46675 | 33941 ft | 402 kts | 271° |
| 2026-04-10 16:13 | 53.61168 | -3.60640 | 34135 ft | 403 kts | 271° |
| 2026-04-10 16:13 | 53.61510 | -3.65328 | 34345 ft | 403 kts | 271° |
| 2026-04-10 16:13 | 53.61756 | -3.70022 | 34562 ft | 401 kts | 269° |
| 2026-04-10 16:13 | 53.61924 | -3.74707 | 34781 ft | 401 kts | 268° |
| 2026-04-10 16:14 | 53.62110 | -3.79406 | 34988 ft | 402 kts | 269° |
| 2026-04-10 16:14 | 53.62328 | -3.84094 | 35213 ft | 402 kts | 269° |
| 2026-04-10 16:14 | 53.62521 | -3.88794 | 35437 ft | 401 kts | 269° |
| 2026-04-10 16:14 | 53.62688 | -3.93483 | 35657 ft | 401 kts | 269° |
| 2026-04-10 16:15 | 53.62878 | -3.98177 | 35890 ft | 402 kts | 269° |
| 2026-04-10 16:15 | 53.63271 | -4.07600 | 35918 ft | 407 kts | 269° |
| 2026-04-10 16:16 | 53.63637 | -4.17169 | 35900 ft | 410 kts | 269° |
| 2026-04-10 16:16 | 53.63966 | -4.25971 | 35909 ft | 410 kts | 269° |
| 2026-04-10 16:17 | 53.64325 | -4.35589 | 35897 ft | 411 kts | 269° |
| 2026-04-10 16:17 | 53.64684 | -4.45228 | 35901 ft | 411 kts | 269° |
| 2026-04-10 16:18 | 53.65030 | -4.54884 | 35888 ft | 413 kts | 269° |
| 2026-04-10 16:18 | 53.65361 | -4.64485 | 35884 ft | 413 kts | 269° |
| 2026-04-10 16:19 | 53.65692 | -4.74170 | 35872 ft | 414 kts | 268° |
| 2026-04-10 16:19 | 53.66016 | -4.83862 | 35856 ft | 414 kts | 268° |
| 2026-04-10 16:20 | 53.66322 | -4.93378 | 35848 ft | 415 kts | 268° |
| 2026-04-10 16:20 | 53.66619 | -5.02650 | 35834 ft | 416 kts | 268° |
| 2026-04-10 16:21 | 53.66867 | -5.10759 | 35822 ft | 416 kts | 268° |
| 2026-04-10 16:21 | 53.67162 | -5.20513 | 35826 ft | 416 kts | 268° |
| 2026-04-10 16:22 | 53.67426 | -5.29717 | 35815 ft | 417 kts | 268° |
| 2026-04-10 16:22 | 53.67702 | -5.39505 | 35806 ft | 417 kts | 268° |
| 2026-04-10 16:23 | 53.68035 | -5.49230 | 35787 ft | 421 kts | 273° |
| 2026-04-10 16:23 | 53.69532 | -5.58234 | 35786 ft | 428 kts | 281° |
| 2026-04-10 16:24 | 53.71220 | -5.67864 | 35777 ft | 429 kts | 280° |
| 2026-04-10 16:24 | 53.73033 | -5.77482 | 35782 ft | 429 kts | 280° |
| 2026-04-10 16:25 | 53.74720 | -5.87131 | 35789 ft | 429 kts | 280° |
| 2026-04-10 16:25 | 53.76500 | -5.96782 | 35792 ft | 430 kts | 280° |
| 2026-04-10 16:26 | 53.78181 | -6.06412 | 35754 ft | 430 kts | 280° |
| 2026-04-10 16:26 | 53.79937 | -6.16109 | 35774 ft | 430 kts | 280° |
| 2026-04-10 16:27 | 53.81631 | -6.25838 | 35750 ft | 432 kts | 280° |
| 2026-04-10 16:27 | 53.83365 | -6.35590 | 35764 ft | 432 kts | 279° |
| 2026-04-10 16:28 | 53.85059 | -6.45345 | 35743 ft | 432 kts | 280° |
| 2026-04-10 16:28 | 53.86763 | -6.55111 | 35737 ft | 433 kts | 279° |
| 2026-04-10 16:29 | 53.88460 | -6.64928 | 35729 ft | 433 kts | 280° |
| 2026-04-10 16:29 | 53.90133 | -6.74664 | 35706 ft | 433 kts | 279° |
| 2026-04-10 16:30 | 53.91826 | -6.84545 | 35710 ft | 434 kts | 280° |
| 2026-04-10 16:30 | 53.93488 | -6.94336 | 35692 ft | 434 kts | 279° |
| 2026-04-10 16:31 | 53.95159 | -7.04190 | 35681 ft | 435 kts | 279° |
| 2026-04-10 16:31 | 53.96816 | -7.14082 | 35684 ft | 435 kts | 279° |
| 2026-04-10 16:32 | 53.98479 | -7.23973 | 35645 ft | 435 kts | 279° |
| 2026-04-10 16:32 | 54.00117 | -7.33872 | 35674 ft | 435 kts | 279° |
| 2026-04-10 16:33 | 54.01763 | -7.43789 | 35637 ft | 436 kts | 279° |
| 2026-04-10 16:33 | 54.03380 | -7.53652 | 35635 ft | 435 kts | 279° |
| 2026-04-10 16:34 | 54.05006 | -7.63581 | 35623 ft | 436 kts | 279° |
| 2026-04-10 16:34 | 54.06620 | -7.73530 | 35619 ft | 436 kts | 279° |
| 2026-04-10 16:35 | 54.08233 | -7.83497 | 35604 ft | 437 kts | 279° |
| 2026-04-10 16:35 | 54.09833 | -7.93487 | 35587 ft | 437 kts | 279° |
| 2026-04-10 16:36 | 54.11338 | -8.02886 | 35592 ft | 437 kts | 279° |
| 2026-04-10 16:36 | 54.12928 | -8.12928 | 35565 ft | 438 kts | 279° |
| 2026-04-10 16:37 | 54.14519 | -8.22985 | 35560 ft | 438 kts | 279° |
| 2026-04-10 16:37 | 54.16082 | -8.32972 | 35559 ft | 438 kts | 279° |
| 2026-04-10 16:38 | 54.17656 | -8.43064 | 35548 ft | 439 kts | 279° |
| 2026-04-10 16:38 | 54.19116 | -8.52492 | 35566 ft | 439 kts | 279° |
| 2026-04-10 16:39 | 54.20675 | -8.62601 | 35560 ft | 440 kts | 279° |
| 2026-04-10 16:39 | 54.22120 | -8.72048 | 35560 ft | 440 kts | 279° |
| 2026-04-10 16:40 | 54.23664 | -8.82183 | 35552 ft | 441 kts | 279° |
| 2026-04-10 16:40 | 54.25199 | -8.92346 | 35513 ft | 441 kts | 279° |
| 2026-04-10 16:41 | 54.26718 | -9.02451 | 35502 ft | 441 kts | 279° |
| 2026-04-10 16:41 | 54.28223 | -9.12516 | 35462 ft | 442 kts | 279° |
| 2026-04-10 16:42 | 54.29727 | -9.22667 | 35429 ft | 442 kts | 279° |
| 2026-04-10 16:42 | 54.30964 | -9.31043 | 35416 ft | 443 kts | 279° |
| 2026-04-10 16:43 | 54.32464 | -9.41274 | 35406 ft | 443 kts | 279° |
| 2026-04-10 16:43 | 54.33959 | -9.51524 | 35395 ft | 443 kts | 279° |
| 2026-04-10 16:44 | 54.35442 | -9.61782 | 35372 ft | 444 kts | 279° |
| 2026-04-10 16:44 | 54.36923 | -9.72062 | 35378 ft | 444 kts | 279° |
| 2026-04-10 16:45 | 54.38031 | -9.79826 | 35363 ft | 444 kts | 279° |
| 2026-04-10 16:45 | 54.39498 | -9.90147 | 35356 ft | 444 kts | 279° |
| 2026-04-10 16:46 | 54.40955 | -10.00460 | 35340 ft | 445 kts | 279° |
| 2026-04-10 16:46 | 54.42401 | -10.10787 | 35351 ft | 445 kts | 279° |
| 2026-04-10 16:47 | 54.43844 | -10.21131 | 35314 ft | 445 kts | 279° |
| 2026-04-10 16:47 | 54.45264 | -10.31407 | 35311 ft | 445 kts | 279° |
| 2026-04-10 16:48 | 54.46591 | -10.41056 | 35338 ft | 444 kts | 279° |
| 2026-04-10 16:48 | 54.48006 | -10.51426 | 35308 ft | 446 kts | 279° |
| 2026-04-10 16:49 | 54.49403 | -10.61734 | 35277 ft | 445 kts | 279° |
| 2026-04-10 16:49 | 54.50801 | -10.72113 | 35300 ft | 445 kts | 279° |
| 2026-04-10 16:50 | 54.52097 | -10.81815 | 35286 ft | 445 kts | 279° |
| 2026-04-10 16:50 | 54.53480 | -10.92218 | 35285 ft | 445 kts | 279° |
| 2026-04-10 16:51 | 54.54755 | -11.01912 | 35266 ft | 445 kts | 279° |
| 2026-04-10 16:51 | 54.56120 | -11.12312 | 35272 ft | 445 kts | 279° |
| 2026-04-10 16:52 | 54.57467 | -11.22706 | 35254 ft | 445 kts | 279° |
| 2026-04-10 16:52 | 54.58817 | -11.33118 | 35247 ft | 445 kts | 279° |
| 2026-04-10 16:53 | 54.60056 | -11.42834 | 35244 ft | 444 kts | 279° |
| 2026-04-10 16:53 | 54.61387 | -11.53259 | 35225 ft | 445 kts | 279° |
| 2026-04-10 16:54 | 54.62701 | -11.63691 | 35226 ft | 444 kts | 279° |
| 2026-04-10 16:54 | 54.63916 | -11.73369 | 35208 ft | 444 kts | 279° |
| 2026-04-10 16:55 | 54.65213 | -11.83784 | 35204 ft | 443 kts | 279° |
| 2026-04-10 16:55 | 54.66491 | -11.94148 | 35202 ft | 443 kts | 279° |
| 2026-04-10 16:56 | 54.67752 | -12.04399 | 35188 ft | 443 kts | 279° |
| 2026-04-10 16:56 | 54.69013 | -12.14813 | 35174 ft | 443 kts | 279° |
| 2026-04-10 16:57 | 54.70086 | -12.23627 | 35169 ft | 442 kts | 279° |
| 2026-04-10 16:57 | 54.71326 | -12.34034 | 35160 ft | 442 kts | 279° |
| 2026-04-10 16:58 | 54.72572 | -12.44439 | 35152 ft | 441 kts | 279° |
| 2026-04-10 16:58 | 54.73797 | -12.54846 | 35147 ft | 441 kts | 279° |
| 2026-04-10 16:59 | 54.75016 | -12.65238 | 35134 ft | 440 kts | 279° |
| 2026-04-10 16:59 | 54.76218 | -12.75561 | 35122 ft | 440 kts | 279° |
| 2026-04-10 17:00 | 54.77412 | -12.85953 | 35121 ft | 439 kts | 279° |
| 2026-04-10 17:00 | 54.78588 | -12.96174 | 35100 ft | 439 kts | 279° |
| 2026-04-10 17:01 | 54.79778 | -13.06727 | 35096 ft | 439 kts | 279° |
| 2026-04-10 17:01 | 54.80955 | -13.17103 | 35094 ft | 439 kts | 279° |
| 2026-04-10 17:02 | 54.82106 | -13.27474 | 35079 ft | 437 kts | 279° |
| 2026-04-10 17:02 | 54.83250 | -13.37770 | 35062 ft | 437 kts | 278° |
| 2026-04-10 17:03 | 54.84384 | -13.48104 | 35058 ft | 436 kts | 279° |
| 2026-04-10 17:03 | 54.85431 | -13.57728 | 35059 ft | 436 kts | 278° |
| 2026-04-10 17:04 | 54.86554 | -13.68066 | 35034 ft | 433 kts | 278° |
| 2026-04-10 17:04 | 54.87647 | -13.78345 | 35036 ft | 433 kts | 278° |
| 2026-04-10 17:05 | 54.88749 | -13.88648 | 35028 ft | 434 kts | 278° |
| 2026-04-10 17:05 | 54.89829 | -13.98928 | 35024 ft | 434 kts | 278° |
| 2026-04-10 17:06 | 54.90908 | -14.09266 | 35008 ft | 435 kts | 278° |
| 2026-04-10 17:06 | 54.91984 | -14.19601 | 35011 ft | 434 kts | 278° |
| 2026-04-10 17:07 | 54.93041 | -14.29982 | 34994 ft | 435 kts | 278° |
| 2026-04-10 17:07 | 54.94104 | -14.40328 | 34992 ft | 434 kts | 278° |
| 2026-04-10 17:08 | 54.95114 | -14.50439 | 34970 ft | 436 kts | 278° |
| 2026-04-10 17:08 | 54.95966 | -14.58862 | 34972 ft | 435 kts | 277° |
| 2026-04-10 17:09 | 54.96821 | -14.67570 | 34980 ft | 435 kts | 277° |
| 2026-04-10 17:09 | 54.97855 | -14.77971 | 34966 ft | 436 kts | 277° |
| 2026-04-10 17:10 | 54.98857 | -14.88324 | 34966 ft | 436 kts | 277° |
| 2026-04-10 17:10 | 54.99890 | -14.98748 | 34951 ft | 436 kts | 279° |
| 2026-04-10 17:11 | 55.02028 | -15.08736 | 34944 ft | 442 kts | 288° |
| 2026-04-10 17:11 | 55.04146 | -15.18765 | 34934 ft | 441 kts | 287° |
| 2026-04-10 17:12 | 55.06479 | -15.28698 | 34944 ft | 442 kts | 288° |
| 2026-04-10 17:12 | 55.08620 | -15.38749 | 34928 ft | 442 kts | 287° |
| 2026-04-10 17:13 | 55.10910 | -15.48754 | 34935 ft | 443 kts | 287° |
| 2026-04-10 17:13 | 55.13050 | -15.58764 | 34924 ft | 443 kts | 287° |
| 2026-04-10 17:14 | 55.15311 | -15.68841 | 34921 ft | 445 kts | 287° |
| 2026-04-10 17:14 | 55.17475 | -15.78969 | 34909 ft | 444 kts | 287° |
| 2026-04-10 17:15 | 55.19705 | -15.89081 | 34898 ft | 445 kts | 287° |
| 2026-04-10 17:15 | 55.21873 | -15.99252 | 34902 ft | 446 kts | 287° |
| 2026-04-10 17:16 | 55.24068 | -16.09371 | 34886 ft | 447 kts | 286° |
| 2026-04-10 17:16 | 55.26235 | -16.19577 | 34881 ft | 447 kts | 287° |
| 2026-04-10 17:17 | 55.28424 | -16.29824 | 34861 ft | 449 kts | 286° |
| 2026-04-10 17:17 | 55.30597 | -16.40115 | 34857 ft | 448 kts | 287° |
| 2026-04-10 17:18 | 55.32763 | -16.50405 | 34838 ft | 449 kts | 286° |
| 2026-04-10 17:18 | 55.34924 | -16.60696 | 34833 ft | 449 kts | 286° |
| 2026-04-10 17:19 | 55.37065 | -16.71011 | 34822 ft | 449 kts | 286° |
| 2026-04-10 17:19 | 55.39205 | -16.81277 | 34821 ft | 449 kts | 286° |
| 2026-04-10 17:20 | 55.41298 | -16.91483 | 34762 ft | 451 kts | 286° |
| 2026-04-10 17:20 | 55.43424 | -17.01782 | 34762 ft | 450 kts | 285° |
| 2026-04-10 17:21 | 55.46608 | -17.17403 | 34732 ft | 452 kts | 286° |
| 2026-04-10 17:21 | 55.48711 | -17.27837 | 34704 ft | 452 kts | 285° |
| 2026-04-10 17:22 | 55.50829 | -17.38289 | 34680 ft | 453 kts | 285° |
| 2026-04-10 17:22 | 55.52922 | -17.48792 | 34666 ft | 454 kts | 285° |
| 2026-04-10 17:23 | 55.55028 | -17.59297 | 34631 ft | 454 kts | 285° |
| 2026-04-10 17:23 | 55.57107 | -17.69831 | 34607 ft | 455 kts | 285° |
| 2026-04-10 17:24 | 55.59184 | -17.80328 | 34588 ft | 455 kts | 285° |
| 2026-04-10 17:24 | 55.61254 | -17.90894 | 34568 ft | 456 kts | 285° |
| 2026-04-10 17:25 | 55.63324 | -18.01507 | 34554 ft | 456 kts | 285° |
| 2026-04-10 17:25 | 55.65389 | -18.12131 | 34515 ft | 457 kts | 285° |
| 2026-04-10 17:26 | 55.67439 | -18.22785 | 34530 ft | 457 kts | 285° |
| 2026-04-10 17:26 | 55.69496 | -18.33464 | 34518 ft | 458 kts | 285° |
| 2026-04-10 17:27 | 55.71521 | -18.44118 | 34502 ft | 458 kts | 285° |
| 2026-04-10 17:27 | 55.73563 | -18.54845 | 34508 ft | 460 kts | 285° |
| 2026-04-10 17:28 | 55.75590 | -18.65607 | 34525 ft | 460 kts | 285° |
| 2026-04-10 17:28 | 55.77613 | -18.76391 | 34519 ft | 461 kts | 284° |
| 2026-04-10 17:29 | 55.79633 | -18.87197 | 34541 ft | 461 kts | 285° |
| 2026-04-10 17:29 | 55.81620 | -18.97951 | 34555 ft | 462 kts | 284° |
| 2026-04-10 17:30 | 55.83633 | -19.08809 | 34561 ft | 462 kts | 284° |
| 2026-04-10 17:30 | 55.85613 | -19.19675 | 34592 ft | 463 kts | 284° |
| 2026-04-10 17:31 | 55.87614 | -19.30583 | 34617 ft | 463 kts | 284° |
| 2026-04-10 17:31 | 55.89584 | -19.41520 | 34651 ft | 463 kts | 284° |
| 2026-04-10 17:32 | 55.91553 | -19.52394 | 34662 ft | 464 kts | 284° |
| 2026-04-10 17:32 | 55.93510 | -19.63360 | 34682 ft | 465 kts | 284° |
| 2026-04-10 17:33 | 55.95468 | -19.74338 | 34708 ft | 464 kts | 284° |
| 2026-04-10 17:33 | 55.97411 | -19.85331 | 34727 ft | 464 kts | 284° |
| 2026-04-10 17:34 | 55.99346 | -19.96324 | 34762 ft | 464 kts | 284° |
| 2026-04-10 17:34 | 56.01043 | -20.07443 | 34771 ft | 464 kts | 281° |
| 2026-04-10 17:35 | 56.02655 | -20.18614 | 34793 ft | 463 kts | 282° |
| 2026-04-10 17:35 | 56.04224 | -20.29786 | 34820 ft | 464 kts | 281° |
| 2026-04-10 17:36 | 56.05812 | -20.41007 | 34840 ft | 464 kts | 281° |
| 2026-04-10 17:36 | 56.07357 | -20.52146 | 34853 ft | 464 kts | 281° |
| 2026-04-10 17:37 | 56.08921 | -20.63391 | 34874 ft | 465 kts | 281° |
| 2026-04-10 17:37 | 56.10464 | -20.74653 | 34888 ft | 466 kts | 281° |
| 2026-04-10 17:38 | 56.12005 | -20.85922 | 34901 ft | 466 kts | 281° |
| 2026-04-10 17:38 | 56.13531 | -20.97191 | 34900 ft | 466 kts | 280° |
| 2026-04-10 17:39 | 56.15048 | -21.08501 | 34922 ft | 466 kts | 281° |
| 2026-04-10 17:39 | 56.16559 | -21.19797 | 34942 ft | 466 kts | 280° |
| 2026-04-10 17:40 | 56.18042 | -21.31056 | 34969 ft | 466 kts | 281° |
| 2026-04-10 17:40 | 56.19548 | -21.42455 | 34967 ft | 466 kts | 280° |
| 2026-04-10 17:41 | 56.20807 | -21.52160 | 34990 ft | 465 kts | 280° |
| 2026-04-10 17:41 | 56.22231 | -21.63121 | 34999 ft | 465 kts | 280° |
| 2026-04-10 17:42 | 56.23681 | -21.74432 | 35017 ft | 463 kts | 280° |
| 2026-04-10 17:42 | 56.25088 | -21.85476 | 35037 ft | 462 kts | 280° |
| 2026-04-10 17:43 | 56.26509 | -21.96684 | 35056 ft | 462 kts | 280° |
| 2026-04-10 17:43 | 56.27924 | -22.07966 | 35075 ft | 460 kts | 279° |
| 2026-04-10 17:44 | 56.29321 | -22.19174 | 35097 ft | 458 kts | 279° |
| 2026-04-10 17:44 | 56.30705 | -22.30426 | 35098 ft | 460 kts | 279° |
| 2026-04-10 17:45 | 56.32063 | -22.41460 | 35117 ft | 460 kts | 279° |
| 2026-04-10 17:45 | 56.33451 | -22.52913 | 35149 ft | 461 kts | 279° |
| 2026-04-10 17:46 | 56.34817 | -22.64192 | 35165 ft | 460 kts | 279° |
| 2026-04-10 17:46 | 56.36152 | -22.75485 | 35171 ft | 461 kts | 279° |
| 2026-04-10 17:47 | 56.37509 | -22.86746 | 35190 ft | 462 kts | 279° |
| 2026-04-10 17:47 | 56.38821 | -22.98100 | 35206 ft | 463 kts | 279° |
| 2026-04-10 17:48 | 56.40162 | -23.09450 | 35222 ft | 462 kts | 279° |
| 2026-04-10 17:48 | 56.41459 | -23.20824 | 35239 ft | 462 kts | 279° |
| 2026-04-10 17:49 | 56.42785 | -23.32230 | 35254 ft | 462 kts | 279° |
| 2026-04-10 17:49 | 56.44053 | -23.43556 | 35263 ft | 464 kts | 279° |
| 2026-04-10 17:50 | 56.45357 | -23.54990 | 35283 ft | 464 kts | 279° |
| 2026-04-10 17:50 | 56.46620 | -23.66423 | 35287 ft | 464 kts | 279° |
| 2026-04-10 17:51 | 56.47894 | -23.77897 | 35365 ft | 470 kts | 280° |
| 2026-04-10 17:51 | 56.49180 | -23.89619 | 35295 ft | 476 kts | 280° |
| 2026-04-10 17:52 | 56.50452 | -24.01360 | 35312 ft | 478 kts | 280° |
| 2026-04-10 17:52 | 56.51726 | -24.13176 | 35325 ft | 478 kts | 280° |
| 2026-04-10 17:53 | 56.52982 | -24.24998 | 35338 ft | 479 kts | 280° |
| 2026-04-10 17:53 | 56.54232 | -24.36831 | 35355 ft | 478 kts | 280° |
| 2026-04-10 17:54 | 56.55468 | -24.48655 | 35366 ft | 477 kts | 280° |
| 2026-04-10 17:54 | 56.56684 | -24.60418 | 35370 ft | 477 kts | 280° |
| 2026-04-10 17:55 | 56.57899 | -24.72259 | 35381 ft | 478 kts | 280° |
| 2026-04-10 17:55 | 56.59097 | -24.84098 | 35388 ft | 477 kts | 279° |
| 2026-04-10 17:56 | 56.60290 | -24.95947 | 35394 ft | 477 kts | 279° |
| 2026-04-10 17:56 | 56.61269 | -25.05794 | 35401 ft | 476 kts | 279° |
| 2026-04-10 17:57 | 56.62436 | -25.17624 | 35408 ft | 476 kts | 279° |
| 2026-04-10 17:57 | 56.63590 | -25.29472 | 35409 ft | 475 kts | 279° |
| 2026-04-10 17:58 | 56.64736 | -25.41318 | 35418 ft | 475 kts | 279° |
| 2026-04-10 17:58 | 56.65867 | -25.53172 | 35424 ft | 475 kts | 279° |
| 2026-04-10 17:59 | 56.66986 | -25.64987 | 35432 ft | 474 kts | 279° |
| 2026-04-10 17:59 | 56.68090 | -25.76804 | 35431 ft | 474 kts | 279° |
| 2026-04-10 18:00 | 56.69180 | -25.88572 | 35438 ft | 475 kts | 279° |
| 2026-04-10 18:00 | 56.70269 | -26.00474 | 35436 ft | 477 kts | 279° |
| 2026-04-10 18:01 | 56.71349 | -26.12392 | 35427 ft | 478 kts | 279° |
| 2026-04-10 18:01 | 56.72420 | -26.24372 | 35435 ft | 479 kts | 279° |
| 2026-04-10 18:02 | 56.73484 | -26.36379 | 35446 ft | 480 kts | 279° |
| 2026-04-10 18:02 | 56.74531 | -26.48327 | 35441 ft | 480 kts | 279° |
| 2026-04-10 18:03 | 56.75567 | -26.60349 | 35430 ft | 480 kts | 279° |
| 2026-04-10 18:03 | 56.76601 | -26.72383 | 35434 ft | 479 kts | 279° |
| 2026-04-10 18:04 | 56.77610 | -26.84408 | 35440 ft | 479 kts | 278° |
| 2026-04-10 18:04 | 56.78619 | -26.96397 | 35444 ft | 478 kts | 278° |
| 2026-04-10 18:05 | 56.79601 | -27.08404 | 35422 ft | 478 kts | 278° |
| 2026-04-10 18:05 | 56.80585 | -27.20386 | 35428 ft | 478 kts | 278° |
| 2026-04-10 18:06 | 56.81539 | -27.32310 | 35435 ft | 477 kts | 278° |
| 2026-04-10 18:06 | 56.82500 | -27.44375 | 35429 ft | 477 kts | 278° |
| 2026-04-10 18:07 | 56.83437 | -27.56284 | 35416 ft | 477 kts | 278° |
| 2026-04-10 18:07 | 56.84360 | -27.68273 | 35421 ft | 476 kts | 278° |
| 2026-04-10 18:08 | 56.85285 | -27.80249 | 35420 ft | 475 kts | 278° |
| 2026-04-10 18:08 | 56.86179 | -27.92226 | 35406 ft | 475 kts | 278° |
| 2026-04-10 18:09 | 56.87515 | -28.10169 | 35406 ft | 474 kts | 278° |
| 2026-04-10 18:10 | 56.88386 | -28.22027 | 35412 ft | 473 kts | 278° |
| 2026-04-10 18:10 | 56.89238 | -28.33961 | 35403 ft | 473 kts | 278° |
| 2026-04-10 18:11 | 56.90095 | -28.45888 | 35396 ft | 472 kts | 278° |
| 2026-04-10 18:11 | 56.90920 | -28.57823 | 35400 ft | 472 kts | 278° |
| 2026-04-10 18:12 | 56.91755 | -28.69747 | 35404 ft | 472 kts | 277° |
| 2026-04-10 18:12 | 56.92558 | -28.81672 | 35396 ft | 471 kts | 278° |
| 2026-04-10 18:13 | 56.93359 | -28.93508 | 35392 ft | 471 kts | 277° |
| 2026-04-10 18:13 | 56.94144 | -29.05424 | 35396 ft | 471 kts | 278° |
| 2026-04-10 18:14 | 56.94919 | -29.17315 | 35395 ft | 470 kts | 277° |
| 2026-04-10 18:14 | 56.95686 | -29.29209 | 35388 ft | 470 kts | 277° |
| 2026-04-10 18:15 | 56.96432 | -29.41114 | 35383 ft | 470 kts | 277° |
| 2026-04-10 18:15 | 56.97171 | -29.52852 | 35410 ft | 469 kts | 277° |
| 2026-04-10 18:16 | 56.97898 | -29.64853 | 35380 ft | 469 kts | 277° |
| 2026-04-10 18:16 | 56.98623 | -29.76741 | 35384 ft | 468 kts | 277° |
| 2026-04-10 18:17 | 56.99322 | -29.88631 | 35416 ft | 468 kts | 277° |
| 2026-04-10 18:17 | 56.99935 | -30.00503 | 35378 ft | 470 kts | 270° |
| 2026-04-10 18:17 | 56.99596 | -30.06385 | 35491 ft | 471 kts | 264° |
| 2026-04-10 18:18 | 56.99189 | -30.12359 | 35361 ft | 472 kts | 266° |
| 2026-04-10 18:18 | 56.98629 | -30.24316 | 35401 ft | 471 kts | 265° |
| 2026-04-10 18:19 | 56.97773 | -30.36226 | 35398 ft | 471 kts | 266° |
| 2026-04-10 18:19 | 56.97158 | -30.48159 | 35411 ft | 470 kts | 265° |
| 2026-04-10 18:20 | 56.96315 | -30.60062 | 35418 ft | 470 kts | 266° |
| 2026-04-10 18:20 | 56.95648 | -30.71972 | 35421 ft | 469 kts | 265° |
| 2026-04-10 18:21 | 56.94808 | -30.83853 | 35426 ft | 469 kts | 266° |
| 2026-04-10 18:21 | 56.94105 | -30.95638 | 35433 ft | 469 kts | 265° |
| 2026-04-10 18:22 | 56.93263 | -31.07498 | 35448 ft | 468 kts | 266° |
| 2026-04-10 18:22 | 56.92514 | -31.19344 | 35462 ft | 467 kts | 265° |
| 2026-04-10 18:23 | 56.91671 | -31.31128 | 35471 ft | 466 kts | 266° |
| 2026-04-10 18:23 | 56.90895 | -31.42840 | 35484 ft | 465 kts | 265° |
| 2026-04-10 18:24 | 56.90043 | -31.54582 | 35489 ft | 464 kts | 266° |
| 2026-04-10 18:24 | 56.89234 | -31.66298 | 35502 ft | 464 kts | 265° |
| 2026-04-10 18:25 | 56.88371 | -31.77997 | 35503 ft | 463 kts | 266° |
| 2026-04-10 18:25 | 56.87536 | -31.89661 | 35521 ft | 463 kts | 265° |
| 2026-04-10 18:26 | 56.86664 | -32.01249 | 35535 ft | 462 kts | 265° |
| 2026-04-10 18:26 | 56.85804 | -32.12892 | 35547 ft | 461 kts | 265° |
| 2026-04-10 18:27 | 56.84913 | -32.24490 | 35559 ft | 461 kts | 265° |
| 2026-04-10 18:27 | 56.84031 | -32.36090 | 35564 ft | 461 kts | 265° |
| 2026-04-10 18:28 | 56.83120 | -32.47678 | 35582 ft | 461 kts | 265° |
| 2026-04-10 18:28 | 56.82214 | -32.59282 | 35589 ft | 461 kts | 265° |
| 2026-04-10 18:29 | 56.81283 | -32.70865 | 35597 ft | 461 kts | 265° |
| 2026-04-10 18:29 | 56.80358 | -32.82372 | 35603 ft | 461 kts | 265° |
| 2026-04-10 18:30 | 56.79416 | -32.93887 | 35629 ft | 460 kts | 265° |
| 2026-04-10 18:30 | 56.78457 | -33.05480 | 35638 ft | 460 kts | 265° |
| 2026-04-10 18:31 | 56.77496 | -33.17017 | 35650 ft | 459 kts | 265° |
| 2026-04-10 18:31 | 56.76517 | -33.28525 | 35652 ft | 459 kts | 265° |
| 2026-04-10 18:32 | 56.75539 | -33.40022 | 35658 ft | 458 kts | 265° |
| 2026-04-10 18:32 | 56.74542 | -33.51487 | 35659 ft | 458 kts | 265° |
| 2026-04-10 18:33 | 56.73544 | -33.62938 | 35676 ft | 458 kts | 265° |
| 2026-04-10 18:33 | 56.72530 | -33.74375 | 35683 ft | 457 kts | 265° |
| 2026-04-10 18:34 | 56.71516 | -33.85722 | 35689 ft | 457 kts | 264° |
| 2026-04-10 18:34 | 56.70488 | -33.97123 | 35699 ft | 456 kts | 265° |
| 2026-04-10 18:35 | 56.69444 | -34.08512 | 35693 ft | 456 kts | 264° |
| 2026-04-10 18:35 | 56.68399 | -34.19885 | 35701 ft | 455 kts | 264° |
| 2026-04-10 18:36 | 56.67337 | -34.31232 | 35720 ft | 455 kts | 264° |
| 2026-04-10 18:36 | 56.66271 | -34.42574 | 35731 ft | 454 kts | 264° |
| 2026-04-10 18:37 | 56.65199 | -34.53819 | 35731 ft | 453 kts | 264° |
| 2026-04-10 18:37 | 56.64114 | -34.65114 | 35728 ft | 453 kts | 264° |
| 2026-04-10 18:38 | 56.63021 | -34.76387 | 35730 ft | 452 kts | 264° |
| 2026-04-10 18:38 | 56.61915 | -34.87641 | 35736 ft | 452 kts | 264° |
| 2026-04-10 18:39 | 56.60806 | -34.98870 | 35745 ft | 451 kts | 264° |
| 2026-04-10 18:39 | 56.59685 | -35.10058 | 35760 ft | 451 kts | 264° |
| 2026-04-10 18:40 | 56.58563 | -35.21184 | 35756 ft | 450 kts | 264° |
| 2026-04-10 18:40 | 56.57427 | -35.32350 | 35761 ft | 449 kts | 264° |
| 2026-04-10 18:41 | 56.56279 | -35.43483 | 35764 ft | 449 kts | 264° |
| 2026-04-10 18:41 | 56.55127 | -35.54618 | 35771 ft | 449 kts | 264° |
| 2026-04-10 18:42 | 56.53961 | -35.65715 | 35779 ft | 448 kts | 264° |
| 2026-04-10 18:42 | 56.52792 | -35.76805 | 35786 ft | 448 kts | 264° |
| 2026-04-10 18:43 | 56.51807 | -35.86019 | 35786 ft | 447 kts | 264° |
| 2026-04-10 18:43 | 56.50621 | -35.97075 | 35793 ft | 447 kts | 264° |
| 2026-04-10 18:44 | 56.49235 | -36.09866 | 35797 ft | 445 kts | 264° |
| 2026-04-10 18:44 | 56.48223 | -36.19075 | 35808 ft | 445 kts | 264° |
| 2026-04-10 18:45 | 56.47018 | -36.30043 | 35812 ft | 444 kts | 264° |
| 2026-04-10 18:45 | 56.45801 | -36.40932 | 35813 ft | 443 kts | 264° |
| 2026-04-10 18:46 | 56.44580 | -36.51858 | 35819 ft | 443 kts | 263° |
| 2026-04-10 18:46 | 56.43343 | -36.62759 | 35850 ft | 442 kts | 263° |
| 2026-04-10 18:47 | 56.42104 | -36.73624 | 35848 ft | 441 kts | 263° |
| 2026-04-10 18:47 | 56.40857 | -36.84482 | 35841 ft | 440 kts | 263° |
| 2026-04-10 18:48 | 56.39606 | -36.95228 | 35842 ft | 440 kts | 263° |
| 2026-04-10 18:48 | 56.38350 | -37.06023 | 35856 ft | 439 kts | 263° |
| 2026-04-10 18:49 | 56.37076 | -37.16771 | 35863 ft | 439 kts | 263° |
| 2026-04-10 18:49 | 56.35801 | -37.27556 | 35868 ft | 438 kts | 263° |
| 2026-04-10 18:50 | 56.34506 | -37.38320 | 35872 ft | 438 kts | 263° |
| 2026-04-10 18:50 | 56.33215 | -37.49046 | 35885 ft | 438 kts | 263° |
| 2026-04-10 18:51 | 56.31911 | -37.59755 | 35878 ft | 437 kts | 263° |
| 2026-04-10 18:51 | 56.30597 | -37.70455 | 35894 ft | 437 kts | 262° |
| 2026-04-10 18:52 | 56.29290 | -37.81074 | 35899 ft | 437 kts | 262° |
| 2026-04-10 18:52 | 56.27955 | -37.91748 | 35911 ft | 436 kts | 262° |
| 2026-04-10 18:53 | 56.26625 | -38.02383 | 35918 ft | 435 kts | 262° |
| 2026-04-10 18:53 | 56.25282 | -38.12998 | 35917 ft | 435 kts | 262° |
| 2026-04-10 18:54 | 56.23932 | -38.23590 | 35916 ft | 434 kts | 262° |
| 2026-04-10 18:54 | 56.22578 | -38.34171 | 35922 ft | 434 kts | 262° |
| 2026-04-10 18:55 | 56.21207 | -38.44740 | 35926 ft | 434 kts | 261° |
| 2026-04-10 18:55 | 56.19841 | -38.55284 | 35935 ft | 433 kts | 261° |
| 2026-04-10 18:56 | 56.18463 | -38.65745 | 35942 ft | 433 kts | 261° |
| 2026-04-10 18:56 | 56.17081 | -38.76253 | 35947 ft | 432 kts | 261° |
| 2026-04-10 18:57 | 56.15682 | -38.86750 | 35957 ft | 431 kts | 261° |
| 2026-04-10 18:57 | 56.14280 | -38.97220 | 35958 ft | 431 kts | 261° |
| 2026-04-10 18:58 | 56.12873 | -39.07667 | 35958 ft | 431 kts | 261° |
| 2026-04-10 18:58 | 56.11459 | -39.18039 | 35962 ft | 431 kts | 260° |
| 2026-04-10 18:59 | 56.10040 | -39.28467 | 35965 ft | 431 kts | 260° |
| 2026-04-10 18:59 | 56.08598 | -39.38883 | 35970 ft | 430 kts | 260° |
| 2026-04-10 19:00 | 56.07164 | -39.49273 | 35976 ft | 430 kts | 260° |
| 2026-04-10 19:00 | 56.05709 | -39.59668 | 35986 ft | 429 kts | 260° |
| 2026-04-10 19:01 | 56.04252 | -39.70041 | 35991 ft | 429 kts | 259° |
| 2026-04-10 19:01 | 56.02799 | -39.80331 | 35995 ft | 429 kts | 259° |
| 2026-04-10 19:02 | 56.01321 | -39.90669 | 36000 ft | 429 kts | 259° |
| 2026-04-10 19:02 | 55.99847 | -40.01000 | 35999 ft | 429 kts | 259° |
| 2026-04-10 19:03 | 55.98273 | -40.11286 | 36008 ft | 429 kts | 258° |
| 2026-04-10 19:03 | 55.96726 | -40.21561 | 36012 ft | 428 kts | 259° |
| 2026-04-10 19:04 | 55.95143 | -40.31789 | 36023 ft | 428 kts | 258° |
| 2026-04-10 19:04 | 55.93580 | -40.42042 | 36031 ft | 427 kts | 258° |
| 2026-04-10 19:05 | 55.91991 | -40.52187 | 36029 ft | 427 kts | 258° |
| 2026-04-10 19:05 | 55.90413 | -40.62404 | 36028 ft | 427 kts | 258° |
| 2026-04-10 19:06 | 55.88800 | -40.72591 | 36033 ft | 427 kts | 258° |
| 2026-04-10 19:06 | 55.87206 | -40.82761 | 36049 ft | 427 kts | 257° |
| 2026-04-10 19:07 | 55.85580 | -40.92942 | 36047 ft | 426 kts | 258° |
| 2026-04-10 19:07 | 55.83960 | -41.03105 | 36050 ft | 427 kts | 257° |
| 2026-04-10 19:08 | 55.82328 | -41.13261 | 36059 ft | 427 kts | 257° |
| 2026-04-10 19:08 | 55.80683 | -41.23406 | 36065 ft | 427 kts | 257° |
| 2026-04-10 19:09 | 55.79050 | -41.33487 | 36064 ft | 427 kts | 257° |
| 2026-04-10 19:09 | 55.77385 | -41.43612 | 36070 ft | 427 kts | 257° |
| 2026-04-10 19:10 | 55.75723 | -41.53757 | 36081 ft | 427 kts | 257° |
| 2026-04-10 19:10 | 55.74043 | -41.63867 | 36079 ft | 427 kts | 257° |
| 2026-04-10 19:11 | 55.72362 | -41.73981 | 36085 ft | 427 kts | 256° |
| 2026-04-10 19:11 | 55.70675 | -41.84059 | 36086 ft | 426 kts | 256° |
| 2026-04-10 19:12 | 55.68985 | -41.94062 | 36093 ft | 426 kts | 256° |
| 2026-04-10 19:12 | 55.67288 | -42.04124 | 36094 ft | 425 kts | 256° |
| 2026-04-10 19:13 | 55.65570 | -42.14151 | 36101 ft | 425 kts | 256° |
| 2026-04-10 19:13 | 55.63862 | -42.24177 | 36105 ft | 425 kts | 256° |
| 2026-04-10 19:14 | 55.62140 | -42.34127 | 36111 ft | 425 kts | 256° |
| 2026-04-10 19:14 | 55.60412 | -42.44123 | 36114 ft | 425 kts | 255° |
| 2026-04-10 19:15 | 55.58672 | -42.54110 | 36110 ft | 425 kts | 255° |
| 2026-04-10 19:15 | 55.56916 | -42.64111 | 36111 ft | 426 kts | 255° |
| 2026-04-10 19:16 | 55.55163 | -42.74101 | 36109 ft | 426 kts | 255° |
| 2026-04-10 19:16 | 55.53387 | -42.84074 | 36116 ft | 425 kts | 255° |
| 2026-04-10 19:17 | 55.50723 | -42.99026 | 36133 ft | 425 kts | 255° |
| 2026-04-10 19:17 | 55.48952 | -43.08927 | 36130 ft | 426 kts | 255° |
| 2026-04-10 19:18 | 55.47148 | -43.18867 | 36135 ft | 425 kts | 255° |
| 2026-04-10 19:18 | 55.45351 | -43.28817 | 36129 ft | 425 kts | 255° |
| 2026-04-10 19:19 | 55.43535 | -43.38728 | 36126 ft | 425 kts | 255° |
| 2026-04-10 19:19 | 55.41721 | -43.48636 | 36135 ft | 425 kts | 254° |
| 2026-04-10 19:20 | 55.39904 | -43.58487 | 36137 ft | 425 kts | 254° |
| 2026-04-10 19:20 | 55.38067 | -43.68371 | 36144 ft | 425 kts | 254° |
| 2026-04-10 19:21 | 55.36234 | -43.78245 | 36137 ft | 425 kts | 254° |
| 2026-04-10 19:21 | 55.34378 | -43.88101 | 36135 ft | 424 kts | 254° |
| 2026-04-10 19:22 | 55.32531 | -43.97955 | 36135 ft | 424 kts | 254° |
| 2026-04-10 19:22 | 55.30662 | -44.07788 | 36140 ft | 424 kts | 254° |
| 2026-04-10 19:23 | 55.28806 | -44.17559 | 36142 ft | 424 kts | 253° |
| 2026-04-10 19:23 | 55.26930 | -44.27371 | 36145 ft | 423 kts | 253° |
| 2026-04-10 19:24 | 55.25046 | -44.37143 | 36140 ft | 423 kts | 253° |
| 2026-04-10 19:24 | 55.23166 | -44.46908 | 36137 ft | 423 kts | 253° |
| 2026-04-10 19:25 | 55.21263 | -44.56656 | 36133 ft | 422 kts | 253° |
| 2026-04-10 19:25 | 55.19373 | -44.66389 | 36147 ft | 422 kts | 253° |
| 2026-04-10 19:26 | 55.17457 | -44.76111 | 36148 ft | 422 kts | 253° |
| 2026-04-10 19:26 | 55.15547 | -44.85827 | 36139 ft | 422 kts | 253° |
| 2026-04-10 19:27 | 55.13622 | -44.95529 | 36136 ft | 422 kts | 253° |
| 2026-04-10 19:27 | 55.12061 | -45.03375 | 36144 ft | 422 kts | 252° |
| 2026-04-10 19:28 | 55.10132 | -45.13022 | 36137 ft | 421 kts | 253° |
| 2026-04-10 19:28 | 55.08183 | -45.22703 | 36130 ft | 422 kts | 252° |
| 2026-04-10 19:29 | 55.06567 | -45.30736 | 36138 ft | 422 kts | 252° |
| 2026-04-10 19:29 | 55.04284 | -45.41952 | 36133 ft | 422 kts | 252° |
| 2026-04-10 19:30 | 55.02331 | -45.51577 | 36136 ft | 422 kts | 252° |
| 2026-04-10 19:30 | 55.00681 | -45.59589 | 36121 ft | 421 kts | 252° |
| 2026-04-10 19:31 | 54.98710 | -45.69207 | 36126 ft | 422 kts | 252° |
| 2026-04-10 19:31 | 54.96718 | -45.78820 | 36126 ft | 421 kts | 252° |
| 2026-04-10 19:32 | 54.94726 | -45.88417 | 36132 ft | 421 kts | 252° |
| 2026-04-10 19:32 | 54.92728 | -45.98006 | 36125 ft | 421 kts | 252° |
| 2026-04-10 19:33 | 54.90715 | -46.07576 | 36117 ft | 421 kts | 251° |
| 2026-04-10 19:33 | 54.88706 | -46.17145 | 36118 ft | 421 kts | 251° |
| 2026-04-10 19:34 | 54.86688 | -46.26647 | 36117 ft | 421 kts | 251° |
| 2026-04-10 19:34 | 54.84662 | -46.36190 | 36122 ft | 421 kts | 251° |
| 2026-04-10 19:35 | 54.82625 | -46.45727 | 36113 ft | 421 kts | 251° |
| 2026-04-10 19:35 | 54.80575 | -46.55257 | 36106 ft | 421 kts | 251° |
| 2026-04-10 19:36 | 54.78541 | -46.64714 | 36097 ft | 421 kts | 251° |
| 2026-04-10 19:36 | 54.76477 | -46.74209 | 36101 ft | 421 kts | 251° |
| 2026-04-10 19:37 | 54.74412 | -46.83724 | 36103 ft | 421 kts | 251° |
| 2026-04-10 19:37 | 54.72348 | -46.93144 | 36100 ft | 421 kts | 251° |
| 2026-04-10 19:38 | 54.70267 | -47.02617 | 36097 ft | 421 kts | 250° |
| 2026-04-10 19:38 | 54.68182 | -47.12079 | 36087 ft | 421 kts | 250° |
| 2026-04-10 19:39 | 54.66079 | -47.21538 | 36080 ft | 421 kts | 250° |
| 2026-04-10 19:39 | 54.63983 | -47.30983 | 36086 ft | 421 kts | 250° |
| 2026-04-10 19:40 | 54.61866 | -47.40415 | 36087 ft | 421 kts | 250° |
| 2026-04-10 19:40 | 54.59754 | -47.49832 | 36083 ft | 420 kts | 250° |
| 2026-04-10 19:41 | 54.57632 | -47.59235 | 36078 ft | 420 kts | 250° |
| 2026-04-10 19:41 | 54.55513 | -47.68563 | 36074 ft | 420 kts | 250° |
| 2026-04-10 19:42 | 54.53379 | -47.77956 | 36074 ft | 421 kts | 250° |
| 2026-04-10 19:42 | 54.51227 | -47.87338 | 36076 ft | 421 kts | 250° |
| 2026-04-10 19:43 | 54.49075 | -47.96724 | 36070 ft | 421 kts | 250° |
| 2026-04-10 19:43 | 54.46925 | -48.06034 | 36071 ft | 421 kts | 250° |
| 2026-04-10 19:44 | 54.44800 | -48.15191 | 36060 ft | 421 kts | 249° |
| 2026-04-10 19:44 | 54.42627 | -48.24548 | 36058 ft | 421 kts | 249° |
| 2026-04-10 19:45 | 54.40441 | -48.33869 | 36058 ft | 421 kts | 249° |
| 2026-04-10 19:45 | 54.38259 | -48.43189 | 36060 ft | 421 kts | 249° |
| 2026-04-10 19:46 | 54.36068 | -48.52454 | 36053 ft | 421 kts | 249° |
| 2026-04-10 19:46 | 54.33870 | -48.61744 | 36052 ft | 421 kts | 249° |
| 2026-04-10 19:47 | 54.31659 | -48.71041 | 36044 ft | 421 kts | 249° |
| 2026-04-10 19:47 | 54.29438 | -48.80321 | 36040 ft | 421 kts | 249° |
| 2026-04-10 19:48 | 54.27220 | -48.89589 | 36045 ft | 420 kts | 249° |
| 2026-04-10 19:48 | 54.24986 | -48.98834 | 36046 ft | 420 kts | 249° |
| 2026-04-10 19:49 | 54.22771 | -49.08003 | 36045 ft | 420 kts | 249° |
| 2026-04-10 19:49 | 54.20531 | -49.17219 | 36034 ft | 420 kts | 249° |
| 2026-04-10 19:50 | 54.18280 | -49.26430 | 36033 ft | 420 kts | 248° |
| 2026-04-10 19:50 | 54.16028 | -49.35637 | 36032 ft | 420 kts | 248° |
| 2026-04-10 19:51 | 54.13765 | -49.44809 | 36039 ft | 420 kts | 248° |
| 2026-04-10 19:51 | 54.11499 | -49.54001 | 36035 ft | 420 kts | 248° |
| 2026-04-10 19:52 | 54.09235 | -49.63111 | 36036 ft | 420 kts | 248° |
| 2026-04-10 19:52 | 54.06951 | -49.72277 | 36037 ft | 420 kts | 248° |
| 2026-04-10 19:53 | 54.04663 | -49.81432 | 36035 ft | 420 kts | 248° |
| 2026-04-10 19:53 | 54.02364 | -49.90559 | 36027 ft | 420 kts | 248° |
| 2026-04-10 19:54 | 54.00069 | -49.99686 | 36024 ft | 420 kts | 248° |
| 2026-04-10 19:54 | 53.97877 | -50.08816 | 36031 ft | 420 kts | 249° |
| 2026-04-10 19:55 | 53.95637 | -50.17976 | 36033 ft | 420 kts | 249° |
| 2026-04-10 19:55 | 53.93415 | -50.27174 | 36033 ft | 420 kts | 249° |
| 2026-04-10 19:56 | 53.91173 | -50.36342 | 36033 ft | 420 kts | 249° |
| 2026-04-10 19:56 | 53.88930 | -50.45498 | 36028 ft | 421 kts | 248° |
| 2026-04-10 19:57 | 53.86681 | -50.54656 | 36027 ft | 421 kts | 249° |
| 2026-04-10 19:57 | 53.84426 | -50.63756 | 36021 ft | 421 kts | 248° |
| 2026-04-10 19:58 | 53.82165 | -50.72907 | 36022 ft | 421 kts | 248° |
| 2026-04-10 19:58 | 53.79883 | -50.82034 | 36017 ft | 421 kts | 248° |
| 2026-04-10 19:59 | 53.77618 | -50.91116 | 36028 ft | 421 kts | 248° |
| 2026-04-10 19:59 | 53.75327 | -51.00226 | 36011 ft | 421 kts | 248° |
| 2026-04-10 20:00 | 53.73029 | -51.09336 | 36029 ft | 421 kts | 248° |
| 2026-04-10 20:00 | 53.70723 | -51.18457 | 36005 ft | 422 kts | 248° |
| 2026-04-10 20:01 | 53.68405 | -51.27550 | 36042 ft | 421 kts | 248° |
| 2026-04-10 20:01 | 53.66090 | -51.36646 | 35998 ft | 422 kts | 248° |
| 2026-04-10 20:02 | 53.63755 | -51.45731 | 36032 ft | 422 kts | 248° |
| 2026-04-10 20:02 | 53.61436 | -51.54754 | 36027 ft | 423 kts | 248° |
| 2026-04-10 20:03 | 53.59088 | -51.63839 | 36013 ft | 422 kts | 248° |
| 2026-04-10 20:03 | 53.56734 | -51.72903 | 36033 ft | 422 kts | 248° |
| 2026-04-10 20:04 | 53.54390 | -51.81921 | 36011 ft | 422 kts | 248° |
| 2026-04-10 20:04 | 53.52330 | -51.89777 | 36015 ft | 422 kts | 248° |
| 2026-04-10 20:05 | 53.49964 | -51.98814 | 36016 ft | 422 kts | 248° |
| 2026-04-10 20:05 | 53.47639 | -52.07616 | 36016 ft | 422 kts | 248° |
| 2026-04-10 20:06 | 53.45256 | -52.16637 | 36018 ft | 422 kts | 248° |
| 2026-04-10 20:06 | 53.42871 | -52.25622 | 36018 ft | 422 kts | 248° |
| 2026-04-10 20:07 | 53.39266 | -52.39116 | 36007 ft | 422 kts | 248° |
| 2026-04-10 20:08 | 53.36859 | -52.48098 | 36009 ft | 422 kts | 248° |
| 2026-04-10 20:08 | 53.34445 | -52.57072 | 36008 ft | 422 kts | 248° |
| 2026-04-10 20:09 | 53.32037 | -52.65961 | 36013 ft | 422 kts | 248° |
| 2026-04-10 20:09 | 53.29618 | -52.74901 | 36013 ft | 421 kts | 248° |
| 2026-04-10 20:10 | 53.27182 | -52.83817 | 36006 ft | 421 kts | 248° |
| 2026-04-10 20:10 | 53.24748 | -52.92738 | 36008 ft | 421 kts | 247° |
| 2026-04-10 20:11 | 53.22318 | -53.01580 | 36004 ft | 421 kts | 248° |
| 2026-04-10 20:11 | 53.19870 | -53.10459 | 36008 ft | 421 kts | 247° |
| 2026-04-10 20:12 | 53.17417 | -53.19342 | 36003 ft | 421 kts | 247° |
| 2026-04-10 20:12 | 53.14954 | -53.28185 | 36005 ft | 421 kts | 247° |
| 2026-04-10 20:13 | 53.12490 | -53.37055 | 36004 ft | 421 kts | 247° |
| 2026-04-10 20:13 | 53.10025 | -53.45838 | 35999 ft | 421 kts | 247° |
| 2026-04-10 20:14 | 53.07543 | -53.54689 | 36004 ft | 422 kts | 247° |
| 2026-04-10 20:14 | 53.05052 | -53.63528 | 36006 ft | 422 kts | 247° |
| 2026-04-10 20:15 | 53.02564 | -53.72300 | 36009 ft | 422 kts | 247° |
| 2026-04-10 20:15 | 53.00066 | -53.81119 | 36010 ft | 421 kts | 247° |
| 2026-04-10 20:16 | 52.97548 | -53.89922 | 36009 ft | 421 kts | 247° |
| 2026-04-10 20:16 | 52.95041 | -53.98707 | 36012 ft | 421 kts | 246° |
| 2026-04-10 20:17 | 52.92514 | -54.07488 | 36002 ft | 421 kts | 247° |
| 2026-04-10 20:17 | 52.90006 | -54.16185 | 36005 ft | 421 kts | 246° |
| 2026-04-10 20:18 | 52.87478 | -54.24934 | 36001 ft | 421 kts | 246° |
| 2026-04-10 20:18 | 52.84935 | -54.33664 | 36006 ft | 421 kts | 246° |
| 2026-04-10 20:19 | 52.82831 | -54.40909 | 36006 ft | 420 kts | 246° |
| 2026-04-10 20:19 | 52.79862 | -54.51035 | 36003 ft | 420 kts | 246° |
| 2026-04-10 20:20 | 52.77732 | -54.58306 | 35995 ft | 420 kts | 246° |
| 2026-04-10 20:20 | 52.75193 | -54.66912 | 36000 ft | 419 kts | 246° |
| 2026-04-10 20:21 | 52.72634 | -54.75567 | 36016 ft | 419 kts | 246° |
| 2026-04-10 20:21 | 52.70076 | -54.84200 | 36015 ft | 418 kts | 246° |
| 2026-04-10 20:22 | 52.67506 | -54.92808 | 36015 ft | 417 kts | 246° |
| 2026-04-10 20:22 | 52.64962 | -55.01339 | 36017 ft | 417 kts | 246° |
| 2026-04-10 20:23 | 52.62390 | -55.09902 | 36010 ft | 417 kts | 246° |
| 2026-04-10 20:23 | 52.59813 | -55.18464 | 36009 ft | 416 kts | 246° |
| 2026-04-10 20:24 | 52.57257 | -55.26935 | 36004 ft | 415 kts | 246° |
| 2026-04-10 20:24 | 52.54677 | -55.35421 | 36007 ft | 415 kts | 246° |
| 2026-04-10 20:25 | 52.52100 | -55.43920 | 36004 ft | 415 kts | 246° |
| 2026-04-10 20:25 | 52.49506 | -55.52386 | 36014 ft | 415 kts | 246° |
| 2026-04-10 20:26 | 52.46924 | -55.60838 | 36018 ft | 414 kts | 246° |
| 2026-04-10 20:26 | 52.44340 | -55.69229 | 36027 ft | 414 kts | 246° |
| 2026-04-10 20:27 | 52.41752 | -55.77602 | 36029 ft | 406 kts | 246° |
| 2026-04-10 20:27 | 52.38910 | -55.85671 | 36069 ft | 419 kts | 236° |
| 2026-04-10 20:28 | 52.35333 | -55.93211 | 36046 ft | 418 kts | 238° |
| 2026-04-10 20:28 | 52.31814 | -56.00825 | 36039 ft | 420 kts | 236° |
| 2026-04-10 20:29 | 52.28224 | -56.08362 | 36026 ft | 419 kts | 238° |
| 2026-04-10 20:29 | 52.24674 | -56.15941 | 36027 ft | 420 kts | 236° |
| 2026-04-10 20:30 | 52.21117 | -56.23421 | 36027 ft | 419 kts | 237° |
| 2026-04-10 20:30 | 52.17552 | -56.30943 | 36044 ft | 420 kts | 236° |
| 2026-04-10 20:31 | 52.13974 | -56.38457 | 36046 ft | 419 kts | 237° |
| 2026-04-10 20:31 | 52.10388 | -56.45950 | 36053 ft | 419 kts | 236° |
| 2026-04-10 20:32 | 52.06816 | -56.53431 | 36054 ft | 418 kts | 237° |
| 2026-04-10 20:32 | 52.03228 | -56.60869 | 36055 ft | 418 kts | 237° |
| 2026-04-10 20:33 | 51.99681 | -56.68263 | 36071 ft | 417 kts | 237° |
| 2026-04-10 20:33 | 51.96087 | -56.75668 | 36073 ft | 417 kts | 237° |
| 2026-04-10 20:34 | 51.92509 | -56.83079 | 36105 ft | 417 kts | 237° |
| 2026-04-10 20:34 | 51.88913 | -56.90454 | 36104 ft | 417 kts | 237° |
| 2026-04-10 20:35 | 51.85346 | -56.97788 | 36094 ft | 417 kts | 237° |
| 2026-04-10 20:35 | 51.81746 | -57.05143 | 36102 ft | 417 kts | 237° |
| 2026-04-10 20:36 | 51.78144 | -57.12494 | 36103 ft | 417 kts | 237° |
| 2026-04-10 20:36 | 51.74537 | -57.19832 | 36107 ft | 416 kts | 237° |
| 2026-04-10 20:37 | 51.70951 | -57.27098 | 36101 ft | 416 kts | 236° |
| 2026-04-10 20:37 | 51.67341 | -57.34412 | 36101 ft | 417 kts | 237° |
| 2026-04-10 20:38 | 51.63720 | -57.41698 | 36101 ft | 417 kts | 237° |
| 2026-04-10 20:38 | 51.60099 | -57.48992 | 36101 ft | 416 kts | 236° |
| 2026-04-10 20:39 | 51.56474 | -57.56255 | 36096 ft | 416 kts | 237° |
| 2026-04-10 20:39 | 51.52856 | -57.63491 | 36098 ft | 415 kts | 236° |
| 2026-04-10 20:40 | 51.49258 | -57.70665 | 36094 ft | 414 kts | 236° |
| 2026-04-10 20:40 | 51.45636 | -57.77863 | 36086 ft | 414 kts | 236° |
| 2026-04-10 20:41 | 51.42016 | -57.85046 | 36082 ft | 414 kts | 236° |
| 2026-04-10 20:41 | 51.38395 | -57.92201 | 36088 ft | 413 kts | 236° |
| 2026-04-10 20:42 | 51.34773 | -57.99346 | 36085 ft | 413 kts | 236° |
| 2026-04-10 20:42 | 51.31174 | -58.06420 | 36087 ft | 412 kts | 236° |
| 2026-04-10 20:43 | 51.27558 | -58.13512 | 36085 ft | 411 kts | 236° |
| 2026-04-10 20:43 | 51.23941 | -58.20586 | 36083 ft | 411 kts | 236° |
| 2026-04-10 20:44 | 51.20325 | -58.27636 | 36076 ft | 411 kts | 236° |
| 2026-04-10 20:44 | 51.16704 | -58.34679 | 36075 ft | 410 kts | 236° |
| 2026-04-10 20:45 | 51.13088 | -58.41694 | 36118 ft | 409 kts | 236° |
| 2026-04-10 20:45 | 51.09517 | -58.48597 | 36060 ft | 410 kts | 236° |
| 2026-04-10 20:46 | 51.05871 | -58.55635 | 36104 ft | 408 kts | 236° |
| 2026-04-10 20:46 | 51.02246 | -58.62604 | 36104 ft | 408 kts | 236° |
| 2026-04-10 20:47 | 50.98627 | -58.69550 | 36089 ft | 408 kts | 236° |
| 2026-04-10 20:47 | 50.95007 | -58.76478 | 36086 ft | 407 kts | 236° |
| 2026-04-10 20:48 | 50.91383 | -58.83389 | 36090 ft | 407 kts | 236° |
| 2026-04-10 20:48 | 50.87760 | -58.90291 | 36095 ft | 407 kts | 236° |
| 2026-04-10 20:49 | 50.84135 | -58.97166 | 36098 ft | 407 kts | 236° |
| 2026-04-10 20:49 | 50.80531 | -59.03987 | 36110 ft | 406 kts | 236° |
| 2026-04-10 20:50 | 50.76899 | -59.10850 | 36107 ft | 406 kts | 236° |
| 2026-04-10 20:50 | 50.73261 | -59.17695 | 36106 ft | 406 kts | 236° |
| 2026-04-10 20:51 | 50.69659 | -59.24469 | 36105 ft | 406 kts | 236° |
| 2026-04-10 20:51 | 50.66018 | -59.31276 | 36103 ft | 405 kts | 236° |
| 2026-04-10 20:52 | 50.62387 | -59.38070 | 36115 ft | 405 kts | 236° |
| 2026-04-10 20:52 | 50.58749 | -59.44839 | 36117 ft | 405 kts | 236° |
| 2026-04-10 20:53 | 50.55113 | -59.51604 | 36115 ft | 405 kts | 235° |
| 2026-04-10 20:53 | 50.51470 | -59.58355 | 36117 ft | 404 kts | 236° |
| 2026-04-10 20:54 | 50.47844 | -59.65052 | 36115 ft | 404 kts | 235° |
| 2026-04-10 20:54 | 50.44206 | -59.71773 | 36121 ft | 404 kts | 235° |
| 2026-04-10 20:55 | 50.40556 | -59.78472 | 36123 ft | 404 kts | 235° |
| 2026-04-10 20:55 | 50.36905 | -59.85179 | 36131 ft | 404 kts | 235° |
| 2026-04-10 20:56 | 50.33929 | -59.90618 | 36129 ft | 404 kts | 235° |
| 2026-04-10 20:56 | 50.30274 | -59.97297 | 36131 ft | 404 kts | 235° |
| 2026-04-10 20:57 | 50.26612 | -60.03964 | 36129 ft | 403 kts | 235° |
| 2026-04-10 20:57 | 50.22951 | -60.10612 | 36127 ft | 403 kts | 235° |
| 2026-04-10 20:58 | 50.19294 | -60.17241 | 36126 ft | 403 kts | 235° |
| 2026-04-10 20:58 | 50.15650 | -60.23820 | 36128 ft | 402 kts | 235° |
| 2026-04-10 20:59 | 50.11993 | -60.30419 | 36123 ft | 402 kts | 234° |
| 2026-04-10 20:59 | 50.08326 | -60.37009 | 36158 ft | 402 kts | 234° |
| 2026-04-10 21:00 | 50.04668 | -60.43566 | 36108 ft | 402 kts | 234° |
| 2026-04-10 21:00 | 50.00993 | -60.50146 | 36154 ft | 401 kts | 234° |
| 2026-04-10 21:01 | 49.97327 | -60.56679 | 36143 ft | 401 kts | 234° |
| 2026-04-10 21:01 | 49.93677 | -60.63183 | 36136 ft | 401 kts | 234° |
| 2026-04-10 21:02 | 49.90006 | -60.69696 | 36130 ft | 400 kts | 234° |
| 2026-04-10 21:02 | 49.86335 | -60.76195 | 36127 ft | 401 kts | 234° |
| 2026-04-10 21:03 | 49.82660 | -60.82695 | 36127 ft | 401 kts | 234° |
| 2026-04-10 21:03 | 49.78976 | -60.89172 | 36129 ft | 401 kts | 234° |
| 2026-04-10 21:04 | 49.75299 | -60.95651 | 36133 ft | 401 kts | 234° |
| 2026-04-10 21:04 | 49.71633 | -61.02061 | 36132 ft | 400 kts | 234° |
| 2026-04-10 21:05 | 49.67947 | -61.08522 | 36140 ft | 401 kts | 234° |
| 2026-04-10 21:05 | 49.64252 | -61.14962 | 36140 ft | 401 kts | 234° |
| 2026-04-10 21:06 | 49.60550 | -61.21400 | 36139 ft | 401 kts | 234° |
| 2026-04-10 21:06 | 49.56841 | -61.27850 | 36136 ft | 401 kts | 234° |
| 2026-04-10 21:07 | 49.53128 | -61.34263 | 36137 ft | 401 kts | 234° |
| 2026-04-10 21:07 | 49.49448 | -61.40636 | 36136 ft | 401 kts | 234° |
| 2026-04-10 21:08 | 49.45729 | -61.47032 | 36141 ft | 400 kts | 234° |
| 2026-04-10 21:08 | 49.42022 | -61.53408 | 36143 ft | 400 kts | 233° |
| 2026-04-10 21:09 | 49.38934 | -61.58704 | 36151 ft | 400 kts | 233° |
| 2026-04-10 21:09 | 49.35214 | -61.65065 | 36165 ft | 399 kts | 233° |
| 2026-04-10 21:10 | 49.31507 | -61.71405 | 36142 ft | 399 kts | 233° |
| 2026-04-10 21:10 | 49.27785 | -61.77727 | 36142 ft | 399 kts | 233° |
| 2026-04-10 21:11 | 49.24069 | -61.84051 | 36169 ft | 400 kts | 233° |
| 2026-04-10 21:11 | 49.20360 | -61.90331 | 36124 ft | 400 kts | 233° |
| 2026-04-10 21:12 | 49.16601 | -61.96683 | 36155 ft | 400 kts | 233° |
| 2026-04-10 21:12 | 49.12891 | -62.02947 | 36151 ft | 401 kts | 233° |
| 2026-04-10 21:13 | 49.09137 | -62.09252 | 36155 ft | 401 kts | 233° |
| 2026-04-10 21:13 | 49.05386 | -62.15556 | 36151 ft | 402 kts | 233° |
| 2026-04-10 21:14 | 49.01619 | -62.21858 | 36152 ft | 402 kts | 233° |
| 2026-04-10 21:14 | 48.97840 | -62.28167 | 36150 ft | 403 kts | 233° |
| 2026-04-10 21:15 | 48.92159 | -62.37628 | 36150 ft | 404 kts | 232° |
| 2026-04-10 21:15 | 48.88367 | -62.43926 | 36155 ft | 404 kts | 233° |
| 2026-04-10 21:16 | 48.84586 | -62.50177 | 36154 ft | 404 kts | 232° |
| 2026-04-10 21:16 | 48.80788 | -62.56464 | 36157 ft | 404 kts | 232° |
| 2026-04-10 21:17 | 48.76977 | -62.62734 | 36156 ft | 404 kts | 232° |
| 2026-04-10 21:17 | 48.73160 | -62.69013 | 36157 ft | 405 kts | 232° |
| 2026-04-10 21:18 | 48.69340 | -62.75282 | 36154 ft | 405 kts | 232° |
| 2026-04-10 21:18 | 48.65509 | -62.81541 | 36154 ft | 405 kts | 232° |
| 2026-04-10 21:19 | 48.61674 | -62.87811 | 36151 ft | 406 kts | 232° |
| 2026-04-10 21:19 | 48.57828 | -62.94062 | 36152 ft | 406 kts | 232° |
| 2026-04-10 21:20 | 48.54010 | -63.00274 | 36152 ft | 406 kts | 232° |
| 2026-04-10 21:20 | 48.50156 | -63.06515 | 36152 ft | 406 kts | 232° |
| 2026-04-10 21:21 | 48.46298 | -63.12749 | 36145 ft | 406 kts | 232° |
| 2026-04-10 21:21 | 48.42449 | -63.18965 | 36142 ft | 406 kts | 232° |
| 2026-04-10 21:22 | 48.38582 | -63.25175 | 36142 ft | 406 kts | 232° |
| 2026-04-10 21:22 | 48.34735 | -63.31361 | 36139 ft | 407 kts | 231° |
| 2026-04-10 21:23 | 48.30852 | -63.37573 | 36143 ft | 407 kts | 232° |
| 2026-04-10 21:23 | 48.26973 | -63.43768 | 36144 ft | 407 kts | 231° |
| 2026-04-10 21:24 | 48.23114 | -63.49926 | 36144 ft | 407 kts | 231° |
| 2026-04-10 21:24 | 48.19226 | -63.56095 | 36144 ft | 407 kts | 231° |
| 2026-04-10 21:25 | 48.15335 | -63.62279 | 36148 ft | 408 kts | 231° |
| 2026-04-10 21:25 | 48.11426 | -63.68456 | 36145 ft | 408 kts | 231° |
| 2026-04-10 21:26 | 48.07515 | -63.74631 | 36150 ft | 409 kts | 231° |
| 2026-04-10 21:26 | 48.03595 | -63.80808 | 36145 ft | 409 kts | 231° |
| 2026-04-10 21:27 | 47.99669 | -63.86970 | 36163 ft | 409 kts | 231° |
| 2026-04-10 21:27 | 47.95768 | -63.93095 | 36138 ft | 410 kts | 231° |
| 2026-04-10 21:28 | 47.91827 | -63.99248 | 36146 ft | 410 kts | 231° |
| 2026-04-10 21:28 | 47.87887 | -64.05401 | 36148 ft | 411 kts | 231° |
| 2026-04-10 21:29 | 47.83940 | -64.11542 | 36111 ft | 411 kts | 231° |
| 2026-04-10 21:29 | 47.79978 | -64.17693 | 36133 ft | 411 kts | 231° |
| 2026-04-10 21:30 | 47.77999 | -64.20760 | 36261 ft | 409 kts | 230° |
| 2026-04-10 21:30 | 47.76031 | -64.23814 | 36528 ft | 409 kts | 230° |
| 2026-04-10 21:30 | 47.74058 | -64.26864 | 36808 ft | 409 kts | 230° |
| 2026-04-10 21:30 | 47.72089 | -64.29898 | 37102 ft | 407 kts | 230° |
| 2026-04-10 21:31 | 47.70131 | -64.32924 | 37398 ft | 406 kts | 229° |
| 2026-04-10 21:31 | 47.68170 | -64.35951 | 37708 ft | 405 kts | 229° |
| 2026-04-10 21:31 | 47.66219 | -64.38947 | 38008 ft | 404 kts | 229° |
| 2026-04-10 21:31 | 47.64268 | -64.41947 | 38180 ft | 404 kts | 228° |
| 2026-04-10 21:32 | 47.60359 | -64.47951 | 38114 ft | 405 kts | 228° |
| 2026-04-10 21:32 | 47.56433 | -64.53963 | 38123 ft | 405 kts | 228° |
| 2026-04-10 21:33 | 47.52538 | -64.59910 | 38120 ft | 405 kts | 228° |
| 2026-04-10 21:33 | 47.48611 | -64.65902 | 38132 ft | 406 kts | 228° |
| 2026-04-10 21:34 | 47.44671 | -64.71888 | 38095 ft | 406 kts | 228° |
| 2026-04-10 21:34 | 47.40734 | -64.77866 | 38144 ft | 406 kts | 228° |
| 2026-04-10 21:35 | 47.36791 | -64.83836 | 38109 ft | 406 kts | 228° |
| 2026-04-10 21:35 | 47.32839 | -64.89804 | 38116 ft | 406 kts | 228° |
| 2026-04-10 21:36 | 47.28887 | -64.95762 | 38106 ft | 406 kts | 228° |
| 2026-04-10 21:36 | 47.24925 | -65.01718 | 38124 ft | 406 kts | 228° |
| 2026-04-10 21:37 | 47.20982 | -65.07632 | 38122 ft | 407 kts | 228° |
| 2026-04-10 21:37 | 47.17010 | -65.13579 | 38125 ft | 407 kts | 228° |
| 2026-04-10 21:38 | 47.13027 | -65.19526 | 38132 ft | 408 kts | 227° |
| 2026-04-10 21:38 | 47.09062 | -65.25434 | 38130 ft | 408 kts | 227° |
| 2026-04-10 21:39 | 47.05071 | -65.31370 | 38124 ft | 409 kts | 227° |
| 2026-04-10 21:39 | 47.01067 | -65.37306 | 38125 ft | 409 kts | 227° |
| 2026-04-10 21:40 | 46.97059 | -65.43240 | 38135 ft | 409 kts | 227° |
| 2026-04-10 21:40 | 46.93044 | -65.49168 | 38135 ft | 410 kts | 227° |
| 2026-04-10 21:41 | 46.89046 | -65.55057 | 38132 ft | 410 kts | 227° |
| 2026-04-10 21:41 | 46.85019 | -65.60979 | 38136 ft | 411 kts | 227° |
| 2026-04-10 21:42 | 46.80980 | -65.66900 | 38139 ft | 411 kts | 227° |
| 2026-04-10 21:42 | 46.76941 | -65.72813 | 38145 ft | 412 kts | 227° |
| 2026-04-10 21:43 | 46.72915 | -65.78689 | 38144 ft | 412 kts | 227° |
| 2026-04-10 21:43 | 46.68862 | -65.84596 | 38141 ft | 412 kts | 227° |
| 2026-04-10 21:44 | 46.64793 | -65.90509 | 38144 ft | 413 kts | 227° |
| 2026-04-10 21:44 | 46.60725 | -65.96407 | 38142 ft | 413 kts | 227° |
| 2026-04-10 21:45 | 46.56650 | -66.02308 | 38142 ft | 414 kts | 227° |
| 2026-04-10 21:45 | 46.52558 | -66.08211 | 38144 ft | 414 kts | 227° |
| 2026-04-10 21:46 | 46.48470 | -66.14103 | 38148 ft | 414 kts | 227° |
| 2026-04-10 21:46 | 46.44372 | -66.19994 | 38150 ft | 414 kts | 227° |
| 2026-04-10 21:47 | 46.40301 | -66.25827 | 38150 ft | 415 kts | 227° |
| 2026-04-10 21:47 | 46.36199 | -66.31704 | 38148 ft | 415 kts | 227° |
| 2026-04-10 21:48 | 46.32085 | -66.37570 | 38149 ft | 415 kts | 227° |
| 2026-04-10 21:48 | 46.27963 | -66.43447 | 38154 ft | 415 kts | 227° |
| 2026-04-10 21:49 | 46.23840 | -66.49305 | 38149 ft | 415 kts | 227° |
| 2026-04-10 21:49 | 46.19710 | -66.55160 | 38152 ft | 416 kts | 227° |
| 2026-04-10 21:50 | 46.15608 | -66.60969 | 38151 ft | 415 kts | 227° |
| 2026-04-10 21:50 | 46.11463 | -66.66815 | 38158 ft | 416 kts | 226° |
| 2026-04-10 21:51 | 46.07331 | -66.72643 | 38187 ft | 416 kts | 226° |
| 2026-04-10 21:51 | 46.03206 | -66.78434 | 38143 ft | 416 kts | 226° |
| 2026-04-10 21:52 | 45.99054 | -66.84262 | 38184 ft | 416 kts | 226° |
| 2026-04-10 21:52 | 45.94898 | -66.90077 | 38126 ft | 417 kts | 226° |
| 2026-04-10 21:53 | 45.90767 | -66.95846 | 38168 ft | 416 kts | 226° |
| 2026-04-10 21:53 | 45.86605 | -67.01645 | 38177 ft | 416 kts | 226° |
| 2026-04-10 21:54 | 45.82440 | -67.07434 | 38124 ft | 417 kts | 226° |
| 2026-04-10 21:54 | 45.78270 | -67.13219 | 38162 ft | 417 kts | 226° |
| 2026-04-10 21:55 | 45.74800 | -67.18024 | 38153 ft | 417 kts | 226° |
| 2026-04-10 21:55 | 45.70611 | -67.23811 | 38155 ft | 418 kts | 226° |
| 2026-04-10 21:56 | 45.65740 | -67.30523 | 38161 ft | 418 kts | 226° |
| 2026-04-10 21:56 | 45.62228 | -67.35355 | 38158 ft | 418 kts | 226° |
| 2026-04-10 21:57 | 45.58053 | -67.41085 | 38165 ft | 418 kts | 226° |
| 2026-04-10 21:57 | 45.53855 | -67.46834 | 38163 ft | 418 kts | 226° |
| 2026-04-10 21:58 | 45.49645 | -67.52590 | 38166 ft | 418 kts | 226° |
| 2026-04-10 21:58 | 45.45440 | -67.58319 | 38173 ft | 418 kts | 226° |
| 2026-04-10 21:59 | 45.41236 | -67.64044 | 38174 ft | 418 kts | 226° |
| 2026-04-10 21:59 | 45.37029 | -67.69753 | 38181 ft | 418 kts | 226° |
| 2026-04-10 22:00 | 45.32787 | -67.75354 | 38189 ft | 420 kts | 222° |
| 2026-04-10 22:00 | 45.28273 | -67.80676 | 38171 ft | 421 kts | 223° |
| 2026-04-10 22:01 | 45.23817 | -67.86080 | 38184 ft | 421 kts | 222° |
| 2026-04-10 22:01 | 45.19303 | -67.91405 | 38189 ft | 422 kts | 223° |
| 2026-04-10 22:02 | 45.14823 | -67.96782 | 38182 ft | 422 kts | 222° |
| 2026-04-10 22:02 | 45.10302 | -68.02121 | 38183 ft | 423 kts | 223° |
| 2026-04-10 22:03 | 45.05800 | -68.07474 | 38187 ft | 423 kts | 222° |
| 2026-04-10 22:03 | 45.01311 | -68.12777 | 38203 ft | 423 kts | 222° |
| 2026-04-10 22:04 | 44.96795 | -68.18106 | 38169 ft | 424 kts | 222° |
| 2026-04-10 22:04 | 44.92267 | -68.23444 | 38217 ft | 424 kts | 222° |
| 2026-04-10 22:05 | 44.87727 | -68.28771 | 38182 ft | 425 kts | 222° |
| 2026-04-10 22:05 | 44.83185 | -68.34106 | 38171 ft | 425 kts | 222° |
| 2026-04-10 22:06 | 44.78630 | -68.39428 | 38210 ft | 425 kts | 222° |
| 2026-04-10 22:06 | 44.74081 | -68.44747 | 38157 ft | 426 kts | 222° |
| 2026-04-10 22:07 | 44.69547 | -68.50026 | 38183 ft | 425 kts | 222° |
| 2026-04-10 22:08 | 44.62971 | -68.57667 | 38183 ft | 427 kts | 222° |
| 2026-04-10 22:08 | 44.58427 | -68.62939 | 38174 ft | 427 kts | 222° |
| 2026-04-10 22:09 | 44.54104 | -68.67939 | 38175 ft | 428 kts | 222° |
| 2026-04-10 22:09 | 44.49511 | -68.73240 | 38179 ft | 428 kts | 221° |
| 2026-04-10 22:10 | 44.45174 | -68.78241 | 38178 ft | 428 kts | 222° |
| 2026-04-10 22:10 | 44.40593 | -68.83504 | 38179 ft | 428 kts | 221° |
| 2026-04-10 22:11 | 44.36035 | -68.88739 | 38180 ft | 429 kts | 221° |
| 2026-04-10 22:11 | 44.31655 | -68.93750 | 38179 ft | 429 kts | 221° |
| 2026-04-10 22:12 | 44.27397 | -68.98619 | 38190 ft | 429 kts | 221° |
| 2026-04-10 22:12 | 44.22798 | -69.03861 | 38191 ft | 430 kts | 221° |
| 2026-04-10 22:13 | 44.18162 | -69.09142 | 38190 ft | 430 kts | 221° |
| 2026-04-10 22:13 | 44.13513 | -69.14419 | 38183 ft | 431 kts | 221° |
| 2026-04-10 22:14 | 44.08861 | -69.19692 | 38182 ft | 431 kts | 221° |
| 2026-04-10 22:14 | 44.04228 | -69.24933 | 38187 ft | 432 kts | 221° |
| 2026-04-10 22:15 | 43.99559 | -69.30201 | 38185 ft | 433 kts | 221° |
| 2026-04-10 22:15 | 43.94876 | -69.35477 | 38185 ft | 433 kts | 221° |
| 2026-04-10 22:16 | 43.90201 | -69.40729 | 38108 ft | 427 kts | 221° |
| 2026-04-10 22:16 | 43.87896 | -69.43308 | 37013 ft | 429 kts | 222° |
| 2026-04-10 22:16 | 43.85538 | -69.45957 | 35610 ft | 440 kts | 223° |
| 2026-04-10 22:16 | 43.83141 | -69.48656 | 34412 ft | 447 kts | 224° |
| 2026-04-10 22:17 | 43.80714 | -69.51368 | 33106 ft | 451 kts | 224° |
| 2026-04-10 22:17 | 43.78257 | -69.54106 | 31789 ft | 454 kts | 223° |
| 2026-04-10 22:17 | 43.75800 | -69.56847 | 30529 ft | 454 kts | 223° |
| 2026-04-10 22:17 | 43.73249 | -69.59456 | 29322 ft | 458 kts | 215° |
| 2026-04-10 22:18 | 43.70369 | -69.61282 | 28988 ft | 454 kts | 204° |
| 2026-04-10 22:18 | 43.67407 | -69.62611 | 28279 ft | 445 kts | 203° |
| 2026-04-10 22:18 | 43.64431 | -69.63998 | 27058 ft | 451 kts | 204° |
| 2026-04-10 22:18 | 43.61534 | -69.65347 | 27011 ft | 431 kts | 203° |
| 2026-04-10 22:19 | 43.58737 | -69.66553 | 26616 ft | 420 kts | 202° |
| 2026-04-10 22:19 | 43.55988 | -69.67755 | 26251 ft | 408 kts | 203° |
| 2026-04-10 22:19 | 43.53332 | -69.68997 | 25933 ft | 397 kts | 204° |
| 2026-04-10 22:19 | 43.50742 | -69.70188 | 25608 ft | 388 kts | 202° |
| 2026-04-10 22:20 | 43.48193 | -69.71299 | 25289 ft | 380 kts | 202° |
| 2026-04-10 22:20 | 43.45707 | -69.72403 | 24965 ft | 373 kts | 203° |
| 2026-04-10 22:20 | 43.43578 | -69.73387 | 24698 ft | 370 kts | 203° |
| 2026-04-10 22:20 | 43.41135 | -69.74496 | 24391 ft | 368 kts | 202° |
| 2026-04-10 22:21 | 43.38693 | -69.75565 | 24081 ft | 367 kts | 202° |
| 2026-04-10 22:21 | 43.36268 | -69.76647 | 23776 ft | 365 kts | 202° |
| 2026-04-10 22:21 | 43.33939 | -69.77711 | 23444 ft | 364 kts | 202° |
| 2026-04-10 22:21 | 43.31744 | -69.78691 | 23119 ft | 363 kts | 202° |
| 2026-04-10 22:22 | 43.29345 | -69.79745 | 22777 ft | 361 kts | 202° |
| 2026-04-10 22:22 | 43.26955 | -69.80817 | 22422 ft | 360 kts | 202° |
| 2026-04-10 22:22 | 43.24612 | -69.81875 | 22080 ft | 358 kts | 202° |
| 2026-04-10 22:22 | 43.22508 | -69.82805 | 21778 ft | 357 kts | 202° |
| 2026-04-10 22:23 | 43.20145 | -69.83848 | 21406 ft | 356 kts | 202° |
| 2026-04-10 22:23 | 43.17777 | -69.84913 | 20801 ft | 360 kts | 202° |
| 2026-04-10 22:23 | 43.15387 | -69.85981 | 20198 ft | 362 kts | 202° |
| 2026-04-10 22:23 | 43.12987 | -69.87036 | 19616 ft | 364 kts | 201° |
| 2026-04-10 22:24 | 43.10576 | -69.88105 | 19056 ft | 364 kts | 202° |
| 2026-04-10 22:24 | 43.08188 | -69.89173 | 18500 ft | 365 kts | 202° |
| 2026-04-10 22:24 | 43.05767 | -69.90243 | 17871 ft | 366 kts | 201° |
| 2026-04-10 22:24 | 43.03311 | -69.91323 | 17238 ft | 366 kts | 201° |
| 2026-04-10 22:25 | 43.00931 | -69.92381 | 16736 ft | 363 kts | 201° |
| 2026-04-10 22:25 | 42.98532 | -69.93444 | 16227 ft | 361 kts | 201° |
| 2026-04-10 22:25 | 42.96150 | -69.94493 | 15740 ft | 359 kts | 201° |
| 2026-04-10 22:25 | 42.93779 | -69.95542 | 15250 ft | 357 kts | 201° |
| 2026-04-10 22:26 | 42.91419 | -69.96588 | 14763 ft | 355 kts | 201° |
| 2026-04-10 22:26 | 42.89077 | -69.97616 | 14286 ft | 353 kts | 201° |
| 2026-04-10 22:26 | 42.86746 | -69.98642 | 13799 ft | 351 kts | 201° |
| 2026-04-10 22:26 | 42.84435 | -69.99665 | 13279 ft | 348 kts | 201° |
| 2026-04-10 22:27 | 42.82133 | -70.00676 | 12732 ft | 346 kts | 201° |
| 2026-04-10 22:27 | 42.79844 | -70.01678 | 12206 ft | 344 kts | 201° |
| 2026-04-10 22:27 | 42.77574 | -70.02680 | 11678 ft | 342 kts | 201° |
| 2026-04-10 22:27 | 42.75329 | -70.03702 | 11164 ft | 338 kts | 203° |
| 2026-04-10 22:28 | 42.73138 | -70.04823 | 10648 ft | 335 kts | 203° |
| 2026-04-10 22:28 | 42.70947 | -70.05891 | 10163 ft | 333 kts | 202° |
| 2026-04-10 22:28 | 42.68768 | -70.06928 | 9615 ft | 330 kts | 202° |
| 2026-04-10 22:28 | 42.66693 | -70.08081 | 9078 ft | 323 kts | 212° |
| 2026-04-10 22:29 | 42.65052 | -70.09962 | 9280 ft | 292 kts | 228° |
| 2026-04-10 22:29 | 42.63889 | -70.12132 | 9267 ft | 282 kts | 243° |
| 2026-04-10 22:29 | 42.63140 | -70.14522 | 9205 ft | 266 kts | 247° |
| 2026-04-10 22:29 | 42.62358 | -70.16759 | 9195 ft | 257 kts | 242° |
| 2026-04-10 22:30 | 42.61521 | -70.18930 | 9160 ft | 263 kts | 244° |
| 2026-04-10 22:30 | 42.60789 | -70.21169 | 9186 ft | 258 kts | 247° |
| 2026-04-10 22:30 | 42.60148 | -70.23455 | 9158 ft | 259 kts | 255° |
| 2026-04-10 22:30 | 42.60029 | -70.25900 | 9254 ft | 260 kts | 269° |
| 2026-04-10 22:31 | 42.60001 | -70.28355 | 9209 ft | 266 kts | 263° |
| 2026-04-10 22:31 | 42.59770 | -70.30840 | 9178 ft | 258 kts | 260° |
| 2026-04-10 22:31 | 42.59605 | -70.33262 | 9168 ft | 262 kts | 265° |
| 2026-04-10 22:31 | 42.59581 | -70.35734 | 9177 ft | 261 kts | 266° |
| 2026-04-10 22:32 | 42.59490 | -70.38201 | 9185 ft | 261 kts | 263° |
| 2026-04-10 22:32 | 42.59307 | -70.40650 | 9166 ft | 261 kts | 262° |
| 2026-04-10 22:32 | 42.59193 | -70.43110 | 9166 ft | 262 kts | 265° |
| 2026-04-10 22:32 | 42.59125 | -70.45580 | 9163 ft | 262 kts | 265° |
| 2026-04-10 22:33 | 42.58994 | -70.48048 | 9163 ft | 262 kts | 263° |
| 2026-04-10 22:33 | 42.58846 | -70.50508 | 9161 ft | 262 kts | 264° |
| 2026-04-10 22:33 | 42.58749 | -70.52985 | 9159 ft | 263 kts | 265° |
| 2026-04-10 22:33 | 42.58648 | -70.55454 | 9120 ft | 257 kts | 264° |
| 2026-04-10 22:34 | 42.58352 | -70.57827 | 8982 ft | 256 kts | 251° |
| 2026-04-10 22:34 | 42.57762 | -70.60103 | 8829 ft | 260 kts | 249° |
| 2026-04-10 22:34 | 42.57231 | -70.62456 | 8668 ft | 260 kts | 254° |
| 2026-04-10 22:34 | 42.56793 | -70.64857 | 8362 ft | 263 kts | 253° |
| 2026-04-10 22:35 | 42.56295 | -70.67227 | 8023 ft | 259 kts | 254° |
| 2026-04-10 22:35 | 42.56252 | -70.69665 | 7613 ft | 264 kts | 280° |
| 2026-04-10 22:35 | 42.56959 | -70.71963 | 7256 ft | 267 kts | 297° |
| 2026-04-10 22:35 | 42.58088 | -70.73938 | 6901 ft | 268 kts | 305° |
| 2026-04-10 22:36 | 42.59257 | -70.75911 | 6529 ft | 267 kts | 301° |
| 2026-04-10 22:36 | 42.60056 | -70.78099 | 6115 ft | 254 kts | 278° |
| 2026-04-10 22:36 | 42.60141 | -70.80446 | 5686 ft | 246 kts | 260° |
| 2026-04-10 22:36 | 42.59764 | -70.82687 | 5222 ft | 242 kts | 251° |
| 2026-04-10 22:37 | 42.59354 | -70.84918 | 4663 ft | 245 kts | 255° |
| 2026-04-10 22:37 | 42.59000 | -70.87189 | 4096 ft | 245 kts | 251° |
| 2026-04-10 22:37 | 42.58149 | -70.89115 | 3719 ft | 236 kts | 219° |
| 2026-04-10 22:37 | 42.56830 | -70.90195 | 3851 ft | 209 kts | 211° |
| 2026-04-10 22:38 | 42.55649 | -70.91171 | 3787 ft | 189 kts | 209° |
| 2026-04-10 22:38 | 42.54428 | -70.91788 | 3485 ft | 182 kts | 199° |
| 2026-04-10 22:38 | 42.53265 | -70.92303 | 3233 ft | 171 kts | 202° |
| 2026-04-10 22:38 | 42.52180 | -70.92893 | 2992 ft | 166 kts | 204° |
| 2026-04-10 22:39 | 42.51098 | -70.93435 | 2760 ft | 165 kts | 201° |
| 2026-04-10 22:39 | 42.50033 | -70.93916 | 2558 ft | 151 kts | 201° |
| 2026-04-10 22:39 | 42.49099 | -70.94380 | 2359 ft | 149 kts | 204° |
| 2026-04-10 22:39 | 42.48150 | -70.94862 | 2142 ft | 141 kts | 202° |
| 2026-04-10 22:40 | 42.47230 | -70.95294 | 1966 ft | 141 kts | 201° |
| 2026-04-10 22:40 | 42.46314 | -70.95737 | 1763 ft | 140 kts | 202° |
| 2026-04-10 22:40 | 42.45402 | -70.96191 | 1581 ft | 142 kts | 200° |
| 2026-04-10 22:40 | 42.44479 | -70.96630 | 1365 ft | 139 kts | 200° |
| 2026-04-10 22:41 | 42.43552 | -70.97085 | 1188 ft | 139 kts | 200° |
| 2026-04-10 22:41 | 42.42683 | -70.97505 | 993 ft | 135 kts | 199° |
| 2026-04-10 22:41 | 42.41822 | -70.97925 | 835 ft | 129 kts | 199° |
| 2026-04-10 22:41 | 42.40982 | -70.98337 | 714 ft | 127 kts | 197° |
| 2026-04-10 22:42 | 42.40151 | -70.98734 | 608 ft | 122 kts | 195° |
| 2026-04-10 22:42 | 42.39348 | -70.99120 | 459 ft | 126 kts | 195° |
| 2026-04-10 22:42 | 42.38506 | -70.99515 | 295 ft | 127 kts | 199° |
| 2026-04-10 22:42 | 42.37692 | -70.99940 | 111 ft | 123 kts | 198° |
| 2026-04-10 22:43 | 42.36873 | -71.00335 | 53 ft | 124 kts | 198° |
| 2026-04-10 22:43 | 42.36057 | -71.00722 | 31 ft | 124 kts | 195° |
| 2026-04-10 22:43 | 42.35266 | -71.01062 | 359 ft | 122 kts | 198° |
| 2026-04-10 22:43 | 42.34429 | -71.01415 | 719 ft | 130 kts | 196° |
| 2026-04-10 22:44 | 42.33535 | -71.01784 | 1181 ft | 139 kts | 198° |
| 2026-04-10 22:44 | 42.32600 | -71.02151 | 1844 ft | 139 kts | 200° |
| 2026-04-10 22:44 | 42.31885 | -71.02929 | 2657 ft | 129 kts | 227° |
| 2026-04-10 22:44 | 42.31212 | -71.03789 | 3277 ft | 143 kts | 218° |
| 2026-04-10 22:45 | 42.30230 | -71.04194 | 3728 ft | 164 kts | 177° |
| 2026-04-10 22:45 | 42.29252 | -71.03218 | 4192 ft | 201 kts | 128° |
| 2026-04-10 22:45 | 42.28677 | -71.01305 | 4520 ft | 238 kts | 109° |
| 2026-04-10 22:45 | 42.28714 | -70.98923 | 4680 ft | 268 kts | 77° |
| 2026-04-10 22:46 | 42.29150 | -70.97345 | 4826 ft | 274 kts | 68° |
| 2026-04-10 22:46 | 42.29938 | -70.94960 | 4908 ft | 284 kts | 67° |
| 2026-04-10 22:46 | 42.30737 | -70.92451 | 4891 ft | 294 kts | 65° |
| 2026-04-10 22:46 | 42.31990 | -70.90324 | 4629 ft | 287 kts | 33° |
| 2026-04-10 22:47 | 42.33666 | -70.89119 | 4828 ft | 266 kts | 20° |
| 2026-04-10 22:47 | 42.35360 | -70.88150 | 4896 ft | 263 kts | 20° |
| 2026-04-10 22:47 | 42.37035 | -70.87140 | 4895 ft | 264 kts | 21° |
| 2026-04-10 22:47 | 42.38717 | -70.86153 | 4887 ft | 263 kts | 18° |
| 2026-04-10 22:48 | 42.40435 | -70.85324 | 4899 ft | 262 kts | 15° |
| 2026-04-10 22:48 | 42.42167 | -70.84544 | 4900 ft | 262 kts | 15° |
| 2026-04-10 22:48 | 42.43897 | -70.83745 | 4897 ft | 263 kts | 15° |
| 2026-04-10 22:48 | 42.45628 | -70.82949 | 4898 ft | 266 kts | 15° |
| 2026-04-10 22:49 | 42.47470 | -70.82125 | 4942 ft | 299 kts | 15° |
| 2026-04-10 22:49 | 42.49564 | -70.81205 | 4567 ft | 326 kts | 15° |
| 2026-04-10 22:49 | 42.51729 | -70.80253 | 5037 ft | 323 kts | 15° |
| 2026-04-10 22:49 | 42.53883 | -70.79396 | 5000 ft | 328 kts | 6° |
| 2026-04-10 22:50 | 42.56015 | -70.79490 | 4834 ft | 283 kts | 338° |
| 2026-04-10 22:50 | 42.57621 | -70.80570 | 4447 ft | 243 kts | 308° |
| 2026-04-10 22:50 | 42.58456 | -70.82522 | 4089 ft | 245 kts | 279° |
| 2026-04-10 22:50 | 42.58847 | -70.84859 | 3802 ft | 264 kts | 274° |
| 2026-04-10 22:51 | 42.58790 | -70.87271 | 2996 ft | 248 kts | 247° |
| 2026-04-10 22:51 | 42.57978 | -70.89127 | 2746 ft | 207 kts | 222° |
| 2026-04-10 22:51 | 42.56918 | -70.90142 | 3037 ft | 172 kts | 213° |
| 2026-04-10 22:51 | 42.55884 | -70.91064 | 2961 ft | 184 kts | 209° |
| 2026-04-10 22:52 | 42.54603 | -70.91716 | 2856 ft | 204 kts | 199° |
| 2026-04-10 22:52 | 42.53240 | -70.92312 | 2878 ft | 209 kts | 202° |
| 2026-04-10 22:52 | 42.51875 | -70.93037 | 2855 ft | 210 kts | 203° |
| 2026-04-10 22:52 | 42.50523 | -70.93719 | 2547 ft | 207 kts | 201° |
| 2026-04-10 22:53 | 42.49221 | -70.94317 | 2250 ft | 182 kts | 200° |
| 2026-04-10 22:53 | 42.48178 | -70.94810 | 2075 ft | 143 kts | 202° |
| 2026-04-10 22:53 | 42.47285 | -70.95272 | 1876 ft | 131 kts | 202° |
| 2026-04-10 22:53 | 42.46481 | -70.95659 | 1700 ft | 116 kts | 201° |
| 2026-04-10 22:54 | 42.45665 | -70.96056 | 1563 ft | 134 kts | 201° |
| 2026-04-10 22:54 | 42.44786 | -70.96488 | 1367 ft | 136 kts | 199° |
| 2026-04-10 22:54 | 42.43895 | -70.96911 | 1183 ft | 138 kts | 199° |
| 2026-04-10 22:54 | 42.43006 | -70.97353 | 983 ft | 135 kts | 201° |
| 2026-04-10 22:55 | 42.42157 | -70.97765 | 812 ft | 125 kts | 199° |
| 2026-04-10 22:55 | 42.41361 | -70.98153 | 719 ft | 118 kts | 197° |
| 2026-04-10 22:55 | 42.40604 | -70.98516 | 640 ft | 113 kts | 198° |
| 2026-04-10 22:55 | 42.39897 | -70.98860 | 539 ft | 106 kts | 195° |
| 2026-04-10 22:56 | 42.39214 | -70.99202 | 415 ft | 107 kts | 196° |
| 2026-04-10 22:56 | 42.38493 | -70.99541 | 258 ft | 107 kts | 198° |
| 2026-04-10 22:56 | 42.37792 | -70.99888 | 119 ft | 106 kts | 197° |
| 2026-04-10 22:56 | 42.37094 | -71.00222 | 39 ft | 105 kts | 198° |
| 2026-04-10 22:57 | 42.36405 | -71.00532 | 29 ft | 102 kts | 203° |
| 2026-04-10 22:57 | 42.35893 | -71.00799 | 29 ft | 48 kts | 199° |
| 2026-04-10 22:57 | 42.35740 | -71.00876 | 28 ft | 12 kts | 205° |
| 2026-04-10 22:57 | 42.35651 | -71.00931 | 27 ft | 16 kts | 218° |
| 2026-04-10 22:58 | 42.35642 | -71.01092 | 28 ft | 22 kts | 295° |
| 2026-04-10 22:58 | 42.35688 | -71.01205 | 28 ft | 11 kts | 307° |
| 2026-04-10 22:58 | 42.35737 | -71.01298 | 28 ft | 13 kts | 297° |
| 2026-04-10 22:58 | 42.35742 | -71.01314 | 28 ft | 0 kts | 293° |
| 2026-04-10 22:59 | 42.35742 | -71.01315 | 28 ft | 1 kts | 292° |
| 2026-04-10 23:00 | 42.35749 | -71.01340 | 28 ft | 5 kts | 290° |
| 2026-04-10 23:00 | 42.35767 | -71.01405 | 28 ft | 10 kts | 288° |
| 2026-04-10 23:00 | 42.35794 | -71.01514 | 28 ft | 14 kts | 290° |
| 2026-04-10 23:00 | 42.35834 | -71.01576 | 28 ft | 2 kts | 353° |
| 2026-04-10 23:01 | 42.35853 | -71.01566 | 28 ft | 8 kts | 17° |
| 2026-04-10 23:01 | 42.35939 | -71.01525 | 28 ft | 16 kts | 20° |
| 2026-04-10 23:01 | 42.36062 | -71.01466 | 28 ft | 22 kts | 19° |
| 2026-04-10 23:01 | 42.36217 | -71.01392 | 28 ft | 22 kts | 19° |
| 2026-04-10 23:02 | 42.36352 | -71.01327 | 28 ft | 18 kts | 20° |
| 2026-04-10 23:02 | 42.36478 | -71.01267 | 28 ft | 20 kts | 20° |
| 2026-04-10 23:02 | 42.36586 | -71.01214 | 28 ft | 7 kts | 20° |
| 2026-04-10 23:02 | 42.36636 | -71.01189 | 28 ft | 7 kts | 21° |
| 2026-04-10 23:03 | 42.36652 | -71.01192 | 28 ft | 1 kts | 344° |
| 2026-04-10 23:03 | 42.36670 | -71.01212 | 28 ft | 6 kts | 319° |
| 2026-04-10 23:03 | 42.36709 | -71.01239 | 28 ft | 6 kts | 351° |
| 2026-04-10 23:03 | 42.36758 | -71.01247 | 28 ft | 8 kts | 345° |
| 2026-04-10 23:04 | 42.36807 | -71.01294 | 28 ft | 10 kts | 319° |
| 2026-04-10 23:04 | 42.36877 | -71.01383 | 28 ft | 17 kts | 314° |
| 2026-04-10 23:04 | 42.36958 | -71.01498 | 28 ft | 13 kts | 314° |
| 2026-04-10 23:04 | 42.37028 | -71.01596 | 28 ft | 16 kts | 315° |
| 2026-04-10 23:05 | 42.37104 | -71.01713 | 28 ft | 18 kts | 302° |
| 2026-04-10 23:05 | 42.37108 | -71.01747 | 28 ft | 1 kts | 252° |
| 2026-04-10 23:05 | 42.37102 | -71.01755 | 28 ft | 1 kts | 227° |
| 2026-04-10 23:05 | 42.37094 | -71.01759 | 28 ft | 1 kts | 209° |
| 2026-04-10 23:06 | 42.37085 | -71.01765 | 28 ft | 2 kts | 206° |
| 2026-04-10 23:06 | 42.37059 | -71.01782 | 27 ft | 1 kts | 205° |
| 2026-04-10 23:06 | 42.37051 | -71.01787 | 28 ft | 3 kts | 205° |
| 2026-04-10 23:06 | 42.37044 | -71.01792 | 28 ft | 0 kts | 205° |
| 2026-04-10 23:07 | 42.37042 | -71.01793 | 28 ft | 0 kts | 206° |
| 2026-04-10 23:07 | 42.37041 | -71.01794 | 28 ft | 0 kts | 206° |
| 2026-04-10 23:15 | 42.37042 | -71.01794 | 28 ft | 0 kts | 206° |
| 2026-04-10 23:17 | 42.37042 | -71.01793 | 28 ft | 0 kts | 206° |